<?xml version="1.0" encoding="UTF-8"?>
<gpx version="1.1" creator="2bulu-scraper" xmlns="http://www.topografix.com/GPX/1/1">
  <metadata><name>峨眉山万年寺-雷洞坪</name><desc>source: 2bulu.com trackId=73427279; exported 2026-09-01T16:23:04.974Z</desc>
    <bounds minlat="29.539967" minlon="103.330825" maxlat="29.59398" maxlon="103.384212"/>
    <link href="https://www.2bulu.com/track/t-ulpqRj2NrzPp%252FR2KBg5Tzw%253D%253D.htm"><text>2bulu 源页面</text></link>
  </metadata>
  <wpt lat="29.588633" lon="103.381788"><ele>856</ele><name></name></wpt>
  <wpt lat="29.587375" lon="103.382705"><ele>886</ele><name></name></wpt>
  <wpt lat="29.583703" lon="103.382417"><ele>941</ele><name></name></wpt>
  <wpt lat="29.583072" lon="103.382972"><ele>948</ele><name></name></wpt>
  <wpt lat="29.58138" lon="103.383797"><ele>971</ele><name></name></wpt>
  <wpt lat="29.581245" lon="103.383112"><ele>993</ele><name></name></wpt>
  <wpt lat="29.58125" lon="103.382912"><ele>995</ele><name></name></wpt>
  <wpt lat="29.581763" lon="103.381697"><ele>1003</ele><name></name></wpt>
  <wpt lat="29.581858" lon="103.382775"><ele>973</ele><name></name></wpt>
  <wpt lat="29.579945" lon="103.376013"><ele>1247</ele><name></name></wpt>
  <wpt lat="29.580692" lon="103.375288"><ele>1299</ele><name></name></wpt>
  <wpt lat="29.580717" lon="103.374153"><ele>1347</ele><name></name></wpt>
  <wpt lat="29.574713" lon="103.363608"><ele>1569</ele><name></name></wpt>
  <wpt lat="29.574713" lon="103.363587"><ele>1571</ele><name></name></wpt>
  <wpt lat="29.56867" lon="103.35972"><ele>1737</ele><name></name></wpt>
  <wpt lat="29.563847" lon="103.356575"><ele>1919</ele><name></name></wpt>
  <wpt lat="29.56138" lon="103.345367"><ele>1803</ele><name></name></wpt>
  <wpt lat="29.558913" lon="103.344003"><ele>2040</ele><name></name></wpt>
  <wpt lat="29.5588" lon="103.344262"><ele>2052</ele><name></name></wpt>
  <wpt lat="29.558772" lon="103.344247"><ele>2054</ele><name></name></wpt>
  <wpt lat="29.558778" lon="103.344247"><ele>2054</ele><name></name></wpt>
  <wpt lat="29.558442" lon="103.344017"><ele>2065</ele><name></name></wpt>
  <wpt lat="29.557572" lon="103.344047"><ele>2071</ele><name></name></wpt>
  <wpt lat="29.547038" lon="103.339858"><ele>2376</ele><name></name></wpt>
  <wpt lat="29.547062" lon="103.339867"><ele>2377</ele><name></name></wpt>
  <trk><name>峨眉山万年寺-雷洞坪</name>
      <trkseg>
        <trkpt lat="29.59398" lon="103.376604"><ele>795.9834</ele><time>2025-10-11T18:14:28.000Z</time></trkpt>
        <trkpt lat="29.593947" lon="103.376496"><ele>798.0777</ele><time>2025-10-11T18:14:37.000Z</time></trkpt>
        <trkpt lat="29.593913" lon="103.3764"><ele>800.051</ele><time>2025-10-11T18:14:47.000Z</time></trkpt>
        <trkpt lat="29.593823" lon="103.376385"><ele>802.50165</ele><time>2025-10-11T18:15:09.000Z</time></trkpt>
        <trkpt lat="29.59373" lon="103.376447"><ele>799.6159</ele><time>2025-10-11T18:15:15.000Z</time></trkpt>
        <trkpt lat="29.593843" lon="103.376461"><ele>804.63165</ele><time>2025-10-11T18:15:23.000Z</time></trkpt>
        <trkpt lat="29.593752" lon="103.376479"><ele>804.0172</ele><time>2025-10-11T18:15:51.000Z</time></trkpt>
        <trkpt lat="29.593682" lon="103.376545"><ele>808.3052</ele><time>2025-10-11T18:16:28.000Z</time></trkpt>
        <trkpt lat="29.593599" lon="103.37659"><ele>808.063</ele><time>2025-10-11T18:16:37.000Z</time></trkpt>
        <trkpt lat="29.593512" lon="103.376624"><ele>812.45026</ele><time>2025-10-11T18:16:51.000Z</time></trkpt>
        <trkpt lat="29.593421" lon="103.376651"><ele>819.4192</ele><time>2025-10-11T18:17:23.000Z</time></trkpt>
        <trkpt lat="29.59333" lon="103.376648"><ele>822.3499</ele><time>2025-10-11T18:17:40.000Z</time></trkpt>
        <trkpt lat="29.593239" lon="103.376643"><ele>824.6979</ele><time>2025-10-11T18:17:58.000Z</time></trkpt>
        <trkpt lat="29.593149" lon="103.376629"><ele>827.10657</ele><time>2025-10-11T18:18:14.000Z</time></trkpt>
        <trkpt lat="29.593056" lon="103.376636"><ele>830.3728</ele><time>2025-10-11T18:18:35.000Z</time></trkpt>
        <trkpt lat="29.592968" lon="103.376665"><ele>830.3556</ele><time>2025-10-11T18:18:56.000Z</time></trkpt>
        <trkpt lat="29.592903" lon="103.376751"><ele>829.17786</ele><time>2025-10-11T18:19:06.000Z</time></trkpt>
        <trkpt lat="29.592806" lon="103.376745"><ele>830.9903</ele><time>2025-10-11T18:19:17.000Z</time></trkpt>
        <trkpt lat="29.59273" lon="103.376673"><ele>826.1392</ele><time>2025-10-11T18:19:27.000Z</time></trkpt>
        <trkpt lat="29.592642" lon="103.376641"><ele>825.7252</ele><time>2025-10-11T18:19:38.000Z</time></trkpt>
        <trkpt lat="29.592542" lon="103.376625"><ele>827.6386</ele><time>2025-10-11T18:19:50.000Z</time></trkpt>
        <trkpt lat="29.592448" lon="103.376586"><ele>825.3365</ele><time>2025-10-11T18:20:00.000Z</time></trkpt>
        <trkpt lat="29.592355" lon="103.376588"><ele>827.74567</ele><time>2025-10-11T18:20:10.000Z</time></trkpt>
        <trkpt lat="29.592261" lon="103.376583"><ele>829.52625</ele><time>2025-10-11T18:20:21.000Z</time></trkpt>
        <trkpt lat="29.592164" lon="103.376607"><ele>831.08704</ele><time>2025-10-11T18:20:31.000Z</time></trkpt>
        <trkpt lat="29.592086" lon="103.37667"><ele>831.7276</ele><time>2025-10-11T18:20:46.000Z</time></trkpt>
        <trkpt lat="29.592029" lon="103.376753"><ele>834.2953</ele><time>2025-10-11T18:21:03.000Z</time></trkpt>
        <trkpt lat="29.592045" lon="103.376856"><ele>833.81006</ele><time>2025-10-11T18:21:16.000Z</time></trkpt>
        <trkpt lat="29.592083" lon="103.376952"><ele>836.85077</ele><time>2025-10-11T18:21:26.000Z</time></trkpt>
        <trkpt lat="29.592114" lon="103.377052"><ele>837.6776</ele><time>2025-10-11T18:21:38.000Z</time></trkpt>
        <trkpt lat="29.592108" lon="103.377166"><ele>837.7849</ele><time>2025-10-11T18:21:49.000Z</time></trkpt>
        <trkpt lat="29.592109" lon="103.377274"><ele>837.3137</ele><time>2025-10-11T18:21:59.000Z</time></trkpt>
        <trkpt lat="29.592086" lon="103.37742"><ele>840.05347</ele><time>2025-10-11T18:22:12.000Z</time></trkpt>
        <trkpt lat="29.592067" lon="103.377525"><ele>841.1937</ele><time>2025-10-11T18:22:28.000Z</time></trkpt>
        <trkpt lat="29.59205" lon="103.377627"><ele>843.0319</ele><time>2025-10-11T18:22:42.000Z</time></trkpt>
        <trkpt lat="29.592022" lon="103.377733"><ele>846.2438</ele><time>2025-10-11T18:22:54.000Z</time></trkpt>
        <trkpt lat="29.592004" lon="103.377838"><ele>845.8549</ele><time>2025-10-11T18:23:04.000Z</time></trkpt>
        <trkpt lat="29.591965" lon="103.377931"><ele>845.5207</ele><time>2025-10-11T18:23:12.000Z</time></trkpt>
        <trkpt lat="29.591896" lon="103.378005"><ele>842.10754</ele><time>2025-10-11T18:23:23.000Z</time></trkpt>
        <trkpt lat="29.591814" lon="103.378069"><ele>841.5009</ele><time>2025-10-11T18:23:31.000Z</time></trkpt>
        <trkpt lat="29.59173" lon="103.378126"><ele>844.4888</ele><time>2025-10-11T18:23:40.000Z</time></trkpt>
        <trkpt lat="29.591653" lon="103.378185"><ele>846.0195</ele><time>2025-10-11T18:23:48.000Z</time></trkpt>
        <trkpt lat="29.591591" lon="103.378276"><ele>844.7815</ele><time>2025-10-11T18:23:59.000Z</time></trkpt>
        <trkpt lat="29.591554" lon="103.378381"><ele>842.2217</ele><time>2025-10-11T18:24:08.000Z</time></trkpt>
        <trkpt lat="29.591501" lon="103.37847"><ele>840.98346</ele><time>2025-10-11T18:24:18.000Z</time></trkpt>
        <trkpt lat="29.591468" lon="103.37857"><ele>842.7566</ele><time>2025-10-11T18:24:28.000Z</time></trkpt>
        <trkpt lat="29.591446" lon="103.378671"><ele>841.66315</ele><time>2025-10-11T18:24:36.000Z</time></trkpt>
        <trkpt lat="29.591422" lon="103.378782"><ele>838.687</ele><time>2025-10-11T18:24:47.000Z</time></trkpt>
        <trkpt lat="29.591403" lon="103.378891"><ele>838.4029</ele><time>2025-10-11T18:24:56.000Z</time></trkpt>
        <trkpt lat="29.591381" lon="103.378993"><ele>838.0682</ele><time>2025-10-11T18:25:07.000Z</time></trkpt>
        <trkpt lat="29.59136" lon="103.379094"><ele>836.95984</ele><time>2025-10-11T18:25:17.000Z</time></trkpt>
        <trkpt lat="29.591319" lon="103.379199"><ele>836.77356</ele><time>2025-10-11T18:25:28.000Z</time></trkpt>
        <trkpt lat="29.591268" lon="103.379285"><ele>835.2995</ele><time>2025-10-11T18:25:37.000Z</time></trkpt>
        <trkpt lat="29.591222" lon="103.379381"><ele>833.87665</ele><time>2025-10-11T18:25:46.000Z</time></trkpt>
        <trkpt lat="29.59116" lon="103.379464"><ele>833.1462</ele><time>2025-10-11T18:25:56.000Z</time></trkpt>
        <trkpt lat="29.591111" lon="103.379555"><ele>833.17926</ele><time>2025-10-11T18:26:06.000Z</time></trkpt>
        <trkpt lat="29.591046" lon="103.379636"><ele>833.7668</ele><time>2025-10-11T18:26:16.000Z</time></trkpt>
        <trkpt lat="29.590955" lon="103.379681"><ele>832.79785</ele><time>2025-10-11T18:26:28.000Z</time></trkpt>
        <trkpt lat="29.590865" lon="103.379714"><ele>832.8582</ele><time>2025-10-11T18:26:37.000Z</time></trkpt>
        <trkpt lat="29.590777" lon="103.37975"><ele>832.9531</ele><time>2025-10-11T18:26:47.000Z</time></trkpt>
        <trkpt lat="29.590701" lon="103.379819"><ele>835.5362</ele><time>2025-10-11T18:27:02.000Z</time></trkpt>
        <trkpt lat="29.590761" lon="103.379936"><ele>836.8138</ele><time>2025-10-11T18:30:41.000Z</time></trkpt>
        <trkpt lat="29.590705" lon="103.379852"><ele>839.58624</ele><time>2025-10-11T18:30:48.000Z</time></trkpt>
        <trkpt lat="29.590631" lon="103.379793"><ele>835.37585</ele><time>2025-10-11T18:31:07.000Z</time></trkpt>
        <trkpt lat="29.590642" lon="103.379897"><ele>835.494</ele><time>2025-10-11T18:32:15.000Z</time></trkpt>
        <trkpt lat="29.590542" lon="103.379928"><ele>838.1393</ele><time>2025-10-11T18:32:38.000Z</time></trkpt>
        <trkpt lat="29.590471" lon="103.380006"><ele>841.0085</ele><time>2025-10-11T18:32:55.000Z</time></trkpt>
        <trkpt lat="29.590412" lon="103.380095"><ele>840.9218</ele><time>2025-10-11T18:33:05.000Z</time></trkpt>
        <trkpt lat="29.590346" lon="103.380175"><ele>842.65814</ele><time>2025-10-11T18:33:12.000Z</time></trkpt>
        <trkpt lat="29.590317" lon="103.380276"><ele>838.68176</ele><time>2025-10-11T18:33:28.000Z</time></trkpt>
        <trkpt lat="29.590225" lon="103.380339"><ele>834.48157</ele><time>2025-10-11T18:33:38.000Z</time></trkpt>
        <trkpt lat="29.590156" lon="103.380417"><ele>833.64825</ele><time>2025-10-11T18:33:47.000Z</time></trkpt>
        <trkpt lat="29.590074" lon="103.380477"><ele>834.8814</ele><time>2025-10-11T18:33:55.000Z</time></trkpt>
        <trkpt lat="29.589983" lon="103.380528"><ele>836.0897</ele><time>2025-10-11T18:34:03.000Z</time></trkpt>
        <trkpt lat="29.589894" lon="103.380561"><ele>836.34607</ele><time>2025-10-11T18:34:11.000Z</time></trkpt>
        <trkpt lat="29.589827" lon="103.380637"><ele>837.3969</ele><time>2025-10-11T18:34:19.000Z</time></trkpt>
        <trkpt lat="29.589791" lon="103.380732"><ele>837.6378</ele><time>2025-10-11T18:34:27.000Z</time></trkpt>
        <trkpt lat="29.589738" lon="103.380824"><ele>835.6455</ele><time>2025-10-11T18:34:36.000Z</time></trkpt>
        <trkpt lat="29.589675" lon="103.380903"><ele>833.56934</ele><time>2025-10-11T18:34:52.000Z</time></trkpt>
        <trkpt lat="29.589667" lon="103.381007"><ele>830.9044</ele><time>2025-10-11T18:35:01.000Z</time></trkpt>
        <trkpt lat="29.589658" lon="103.381116"><ele>830.34827</ele><time>2025-10-11T18:35:13.000Z</time></trkpt>
        <trkpt lat="29.589656" lon="103.381223"><ele>829.5128</ele><time>2025-10-11T18:35:22.000Z</time></trkpt>
        <trkpt lat="29.589623" lon="103.381332"><ele>830.8658</ele><time>2025-10-11T18:39:43.000Z</time></trkpt>
        <trkpt lat="29.589574" lon="103.381421"><ele>830.0211</ele><time>2025-10-11T18:39:54.000Z</time></trkpt>
        <trkpt lat="29.589518" lon="103.381506"><ele>830.8067</ele><time>2025-10-11T18:40:03.000Z</time></trkpt>
        <trkpt lat="29.589452" lon="103.381589"><ele>831.10925</ele><time>2025-10-11T18:40:13.000Z</time></trkpt>
        <trkpt lat="29.58939" lon="103.381672"><ele>832.6271</ele><time>2025-10-11T18:40:31.000Z</time></trkpt>
        <trkpt lat="29.589309" lon="103.381622"><ele>835.7217</ele><time>2025-10-11T18:40:51.000Z</time></trkpt>
        <trkpt lat="29.589249" lon="103.381542"><ele>836.08075</ele><time>2025-10-11T18:41:03.000Z</time></trkpt>
        <trkpt lat="29.589171" lon="103.381601"><ele>840.6836</ele><time>2025-10-11T18:41:23.000Z</time></trkpt>
        <trkpt lat="29.589081" lon="103.381581"><ele>842.2694</ele><time>2025-10-11T18:42:01.000Z</time></trkpt>
        <trkpt lat="29.589002" lon="103.381633"><ele>845.8545</ele><time>2025-10-11T18:42:17.000Z</time></trkpt>
        <trkpt lat="29.588917" lon="103.381683"><ele>848.0093</ele><time>2025-10-11T18:42:35.000Z</time></trkpt>
        <trkpt lat="29.588832" lon="103.381734"><ele>850.96967</ele><time>2025-10-11T18:42:49.000Z</time></trkpt>
        <trkpt lat="29.588756" lon="103.381801"><ele>854.26276</ele><time>2025-10-11T18:43:02.000Z</time></trkpt>
        <trkpt lat="29.588669" lon="103.381834"><ele>853.9171</ele><time>2025-10-11T18:43:20.000Z</time></trkpt>
        <trkpt lat="29.588594" lon="103.381909"><ele>856.67664</ele><time>2025-10-11T18:44:35.000Z</time></trkpt>
        <trkpt lat="29.588505" lon="103.381948"><ele>856.3199</ele><time>2025-10-11T18:44:49.000Z</time></trkpt>
        <trkpt lat="29.588429" lon="103.382011"><ele>857.1468</ele><time>2025-10-11T18:45:01.000Z</time></trkpt>
        <trkpt lat="29.588343" lon="103.382044"><ele>855.6808</ele><time>2025-10-11T18:45:11.000Z</time></trkpt>
        <trkpt lat="29.58826" lon="103.382085"><ele>857.8057</ele><time>2025-10-11T18:45:21.000Z</time></trkpt>
        <trkpt lat="29.588173" lon="103.382143"><ele>856.9747</ele><time>2025-10-11T18:45:33.000Z</time></trkpt>
        <trkpt lat="29.588095" lon="103.382203"><ele>859.6236</ele><time>2025-10-11T18:45:46.000Z</time></trkpt>
        <trkpt lat="29.588015" lon="103.382263"><ele>864.16315</ele><time>2025-10-11T18:46:00.000Z</time></trkpt>
        <trkpt lat="29.587927" lon="103.382307"><ele>867.6433</ele><time>2025-10-11T18:46:14.000Z</time></trkpt>
        <trkpt lat="29.587859" lon="103.382381"><ele>871.1269</ele><time>2025-10-11T18:46:31.000Z</time></trkpt>
        <trkpt lat="29.587789" lon="103.382452"><ele>872.2031</ele><time>2025-10-11T18:46:49.000Z</time></trkpt>
        <trkpt lat="29.587723" lon="103.382525"><ele>875.82294</ele><time>2025-10-11T18:47:06.000Z</time></trkpt>
        <trkpt lat="29.587663" lon="103.382605"><ele>878.5709</ele><time>2025-10-11T18:47:24.000Z</time></trkpt>
        <trkpt lat="29.587572" lon="103.382642"><ele>879.3302</ele><time>2025-10-11T18:47:37.000Z</time></trkpt>
        <trkpt lat="29.587485" lon="103.382678"><ele>881.74756</ele><time>2025-10-11T18:47:50.000Z</time></trkpt>
        <trkpt lat="29.587396" lon="103.382708"><ele>885.8274</ele><time>2025-10-11T18:48:04.000Z</time></trkpt>
        <trkpt lat="29.587305" lon="103.382707"><ele>888.1703</ele><time>2025-10-11T18:48:32.000Z</time></trkpt>
        <trkpt lat="29.587213" lon="103.382705"><ele>885.4528</ele><time>2025-10-11T18:48:42.000Z</time></trkpt>
        <trkpt lat="29.587121" lon="103.38272"><ele>888.9824</ele><time>2025-10-11T18:48:52.000Z</time></trkpt>
        <trkpt lat="29.587025" lon="103.382725"><ele>890.6423</ele><time>2025-10-11T18:49:02.000Z</time></trkpt>
        <trkpt lat="29.586929" lon="103.382744"><ele>892.4566</ele><time>2025-10-11T18:49:12.000Z</time></trkpt>
        <trkpt lat="29.586835" lon="103.382744"><ele>891.91925</ele><time>2025-10-11T18:49:23.000Z</time></trkpt>
        <trkpt lat="29.58674" lon="103.382758"><ele>893.6728</ele><time>2025-10-11T18:49:34.000Z</time></trkpt>
        <trkpt lat="29.586646" lon="103.382755"><ele>897.16626</ele><time>2025-10-11T18:49:46.000Z</time></trkpt>
        <trkpt lat="29.586553" lon="103.382778"><ele>897.58905</ele><time>2025-10-11T18:49:59.000Z</time></trkpt>
        <trkpt lat="29.586459" lon="103.38282"><ele>899.3152</ele><time>2025-10-11T18:50:09.000Z</time></trkpt>
        <trkpt lat="29.586373" lon="103.382863"><ele>899.3273</ele><time>2025-10-11T18:50:21.000Z</time></trkpt>
        <trkpt lat="29.586281" lon="103.382904"><ele>899.4089</ele><time>2025-10-11T18:50:30.000Z</time></trkpt>
        <trkpt lat="29.586194" lon="103.38294"><ele>900.22455</ele><time>2025-10-11T18:50:50.000Z</time></trkpt>
        <trkpt lat="29.586111" lon="103.382998"><ele>901.1745</ele><time>2025-10-11T18:51:00.000Z</time></trkpt>
        <trkpt lat="29.586016" lon="103.382998"><ele>902.69446</ele><time>2025-10-11T18:51:09.000Z</time></trkpt>
        <trkpt lat="29.585931" lon="103.38296"><ele>901.811</ele><time>2025-10-11T18:51:38.000Z</time></trkpt>
        <trkpt lat="29.585835" lon="103.382971"><ele>903.23706</ele><time>2025-10-11T18:51:56.000Z</time></trkpt>
        <trkpt lat="29.585741" lon="103.383004"><ele>906.28033</ele><time>2025-10-11T18:52:06.000Z</time></trkpt>
        <trkpt lat="29.585649" lon="103.382995"><ele>907.466</ele><time>2025-10-11T18:52:17.000Z</time></trkpt>
        <trkpt lat="29.585555" lon="103.382984"><ele>906.2039</ele><time>2025-10-11T18:52:30.000Z</time></trkpt>
        <trkpt lat="29.585464" lon="103.382977"><ele>909.9431</ele><time>2025-10-11T18:53:00.000Z</time></trkpt>
        <trkpt lat="29.585372" lon="103.382961"><ele>910.01544</ele><time>2025-10-11T18:53:15.000Z</time></trkpt>
        <trkpt lat="29.585278" lon="103.382966"><ele>910.32074</ele><time>2025-10-11T18:53:32.000Z</time></trkpt>
        <trkpt lat="29.585182" lon="103.382935"><ele>912.11584</ele><time>2025-10-11T18:53:42.000Z</time></trkpt>
        <trkpt lat="29.585084" lon="103.382942"><ele>917.4683</ele><time>2025-10-11T18:53:52.000Z</time></trkpt>
        <trkpt lat="29.585003" lon="103.382895"><ele>918.4326</ele><time>2025-10-11T18:54:07.000Z</time></trkpt>
        <trkpt lat="29.584954" lon="103.382808"><ele>916.7042</ele><time>2025-10-11T18:54:25.000Z</time></trkpt>
        <trkpt lat="29.58489" lon="103.382711"><ele>916.6208</ele><time>2025-10-11T18:54:35.000Z</time></trkpt>
        <trkpt lat="29.584852" lon="103.382616"><ele>916.63153</ele><time>2025-10-11T18:54:45.000Z</time></trkpt>
        <trkpt lat="29.58482" lon="103.382516"><ele>915.52924</ele><time>2025-10-11T18:55:02.000Z</time></trkpt>
        <trkpt lat="29.584806" lon="103.382408"><ele>916.9628</ele><time>2025-10-11T18:55:21.000Z</time></trkpt>
        <trkpt lat="29.584757" lon="103.382311"><ele>916.2426</ele><time>2025-10-11T18:55:32.000Z</time></trkpt>
        <trkpt lat="29.584712" lon="103.382218"><ele>920.0011</ele><time>2025-10-11T18:55:44.000Z</time></trkpt>
        <trkpt lat="29.584649" lon="103.382144"><ele>918.886</ele><time>2025-10-11T18:55:57.000Z</time></trkpt>
        <trkpt lat="29.58457" lon="103.38209"><ele>920.3656</ele><time>2025-10-11T18:56:29.000Z</time></trkpt>
        <trkpt lat="29.584485" lon="103.382052"><ele>923.64233</ele><time>2025-10-11T18:56:51.000Z</time></trkpt>
        <trkpt lat="29.584391" lon="103.382033"><ele>921.51904</ele><time>2025-10-11T18:57:07.000Z</time></trkpt>
        <trkpt lat="29.584298" lon="103.382022"><ele>921.52783</ele><time>2025-10-11T18:57:18.000Z</time></trkpt>
        <trkpt lat="29.584206" lon="103.382046"><ele>926.0571</ele><time>2025-10-11T18:57:31.000Z</time></trkpt>
        <trkpt lat="29.584127" lon="103.382104"><ele>923.8734</ele><time>2025-10-11T18:57:43.000Z</time></trkpt>
        <trkpt lat="29.584047" lon="103.382154"><ele>926.5719</ele><time>2025-10-11T18:57:51.000Z</time></trkpt>
        <trkpt lat="29.583965" lon="103.382213"><ele>930.4338</ele><time>2025-10-11T18:58:02.000Z</time></trkpt>
        <trkpt lat="29.583902" lon="103.382291"><ele>933.79083</ele><time>2025-10-11T18:58:14.000Z</time></trkpt>
        <trkpt lat="29.583811" lon="103.382321"><ele>931.9093</ele><time>2025-10-11T18:58:52.000Z</time></trkpt>
        <trkpt lat="29.583734" lon="103.382382"><ele>942.1091</ele><time>2025-10-11T18:59:27.000Z</time></trkpt>
        <trkpt lat="29.583663" lon="103.382451"><ele>939.94836</ele><time>2025-10-11T18:59:51.000Z</time></trkpt>
        <trkpt lat="29.583583" lon="103.382504"><ele>938.0292</ele><time>2025-10-11T19:00:00.000Z</time></trkpt>
        <trkpt lat="29.583494" lon="103.382533"><ele>938.08105</ele><time>2025-10-11T19:00:12.000Z</time></trkpt>
        <trkpt lat="29.583399" lon="103.38256"><ele>939.5145</ele><time>2025-10-11T19:00:45.000Z</time></trkpt>
        <trkpt lat="29.58331" lon="103.382602"><ele>936.1941</ele><time>2025-10-11T19:01:07.000Z</time></trkpt>
        <trkpt lat="29.583252" lon="103.382695"><ele>938.00543</ele><time>2025-10-11T19:01:23.000Z</time></trkpt>
        <trkpt lat="29.583202" lon="103.382782"><ele>940.46545</ele><time>2025-10-11T19:01:36.000Z</time></trkpt>
        <trkpt lat="29.583142" lon="103.382861"><ele>942.1858</ele><time>2025-10-11T19:01:57.000Z</time></trkpt>
        <trkpt lat="29.583077" lon="103.382942"><ele>943.33264</ele><time>2025-10-11T19:02:13.000Z</time></trkpt>
        <trkpt lat="29.583003" lon="103.383014"><ele>945.80914</ele><time>2025-10-11T19:04:48.000Z</time></trkpt>
        <trkpt lat="29.582927" lon="103.383085"><ele>946.50757</ele><time>2025-10-11T19:05:07.000Z</time></trkpt>
        <trkpt lat="29.582849" lon="103.383138"><ele>944.2737</ele><time>2025-10-11T19:05:23.000Z</time></trkpt>
        <trkpt lat="29.582756" lon="103.383179"><ele>944.15045</ele><time>2025-10-11T19:05:33.000Z</time></trkpt>
        <trkpt lat="29.58269" lon="103.383259"><ele>946.4333</ele><time>2025-10-11T19:05:45.000Z</time></trkpt>
        <trkpt lat="29.582634" lon="103.383346"><ele>947.508</ele><time>2025-10-11T19:05:57.000Z</time></trkpt>
        <trkpt lat="29.582599" lon="103.383442"><ele>952.9952</ele><time>2025-10-11T19:06:14.000Z</time></trkpt>
        <trkpt lat="29.582522" lon="103.383501"><ele>952.11975</ele><time>2025-10-11T19:06:36.000Z</time></trkpt>
        <trkpt lat="29.582431" lon="103.383559"><ele>950.3859</ele><time>2025-10-11T19:06:45.000Z</time></trkpt>
        <trkpt lat="29.582341" lon="103.383579"><ele>956.9368</ele><time>2025-10-11T19:06:55.000Z</time></trkpt>
        <trkpt lat="29.582243" lon="103.383572"><ele>961.74243</ele><time>2025-10-11T19:07:06.000Z</time></trkpt>
        <trkpt lat="29.582249" lon="103.38368"><ele>954.91797</ele><time>2025-10-11T19:07:46.000Z</time></trkpt>
        <trkpt lat="29.58221" lon="103.383774"><ele>952.3068</ele><time>2025-10-11T19:07:55.000Z</time></trkpt>
        <trkpt lat="29.582149" lon="103.383854"><ele>949.8015</ele><time>2025-10-11T19:08:04.000Z</time></trkpt>
        <trkpt lat="29.582104" lon="103.383953"><ele>948.8414</ele><time>2025-10-11T19:08:18.000Z</time></trkpt>
        <trkpt lat="29.582038" lon="103.384027"><ele>950.6272</ele><time>2025-10-11T19:08:27.000Z</time></trkpt>
        <trkpt lat="29.581937" lon="103.384044"><ele>952.059</ele><time>2025-10-11T19:08:36.000Z</time></trkpt>
        <trkpt lat="29.581839" lon="103.384023"><ele>950.87646</ele><time>2025-10-11T19:08:46.000Z</time></trkpt>
        <trkpt lat="29.581756" lon="103.384074"><ele>948.37823</ele><time>2025-10-11T19:08:57.000Z</time></trkpt>
        <trkpt lat="29.581677" lon="103.384137"><ele>950.6815</ele><time>2025-10-11T19:09:18.000Z</time></trkpt>
        <trkpt lat="29.581603" lon="103.384212"><ele>954.22253</ele><time>2025-10-11T19:09:30.000Z</time></trkpt>
        <trkpt lat="29.581511" lon="103.384182"><ele>957.1573</ele><time>2025-10-11T19:10:19.000Z</time></trkpt>
        <trkpt lat="29.58149" lon="103.384079"><ele>959.5192</ele><time>2025-10-11T19:10:54.000Z</time></trkpt>
        <trkpt lat="29.581443" lon="103.383986"><ele>961.9901</ele><time>2025-10-11T19:11:12.000Z</time></trkpt>
        <trkpt lat="29.581392" lon="103.3839"><ele>965.0373</ele><time>2025-10-11T19:11:48.000Z</time></trkpt>
        <trkpt lat="29.581392" lon="103.383796"><ele>969.2716</ele><time>2025-10-11T19:12:11.000Z</time></trkpt>
        <trkpt lat="29.581404" lon="103.383692"><ele>964.04004</ele><time>2025-10-11T19:14:10.000Z</time></trkpt>
        <trkpt lat="29.581322" lon="103.383627"><ele>968.9172</ele><time>2025-10-11T19:14:58.000Z</time></trkpt>
        <trkpt lat="29.581315" lon="103.38352"><ele>973.8425</ele><time>2025-10-11T19:16:39.000Z</time></trkpt>
        <trkpt lat="29.581295" lon="103.383417"><ele>976.7307</ele><time>2025-10-11T19:17:09.000Z</time></trkpt>
        <trkpt lat="29.581299" lon="103.383307"><ele>979.46796</ele><time>2025-10-11T19:17:24.000Z</time></trkpt>
        <trkpt lat="29.581267" lon="103.383208"><ele>986.17554</ele><time>2025-10-11T19:18:02.000Z</time></trkpt>
        <trkpt lat="29.581261" lon="103.383103"><ele>989.13605</ele><time>2025-10-11T19:18:48.000Z</time></trkpt>
        <trkpt lat="29.581236" lon="103.382998"><ele>994.89856</ele><time>2025-10-11T19:19:38.000Z</time></trkpt>
        <trkpt lat="29.581238" lon="103.382894"><ele>997.3707</ele><time>2025-10-11T19:19:58.000Z</time></trkpt>
        <trkpt lat="29.581193" lon="103.382798"><ele>997.4022</ele><time>2025-10-11T19:20:46.000Z</time></trkpt>
        <trkpt lat="29.58124" lon="103.382691"><ele>983.64905</ele><time>2025-10-11T19:21:26.000Z</time></trkpt>
        <trkpt lat="29.581259" lon="103.382583"><ele>998.4652</ele><time>2025-10-11T19:21:45.000Z</time></trkpt>
        <trkpt lat="29.581254" lon="103.382478"><ele>1003.2476</ele><time>2025-10-11T19:23:50.000Z</time></trkpt>
        <trkpt lat="29.581328" lon="103.382418"><ele>997.5656</ele><time>2025-10-11T19:26:54.000Z</time></trkpt>
        <trkpt lat="29.581333" lon="103.382308"><ele>998.95557</ele><time>2025-10-11T19:27:08.000Z</time></trkpt>
        <trkpt lat="29.581384" lon="103.382207"><ele>1006.88074</ele><time>2025-10-11T19:27:31.000Z</time></trkpt>
        <trkpt lat="29.581435" lon="103.382113"><ele>1005.1208</ele><time>2025-10-11T19:28:04.000Z</time></trkpt>
        <trkpt lat="29.581492" lon="103.382023"><ele>1004.01636</ele><time>2025-10-11T19:28:14.000Z</time></trkpt>
        <trkpt lat="29.581547" lon="103.381932"><ele>1001.79877</ele><time>2025-10-11T19:28:25.000Z</time></trkpt>
        <trkpt lat="29.581612" lon="103.38185"><ele>1002.86743</ele><time>2025-10-11T19:28:45.000Z</time></trkpt>
        <trkpt lat="29.581675" lon="103.381771"><ele>1002.2931</ele><time>2025-10-11T19:28:54.000Z</time></trkpt>
        <trkpt lat="29.581754" lon="103.381698"><ele>1002.42847</ele><time>2025-10-11T19:29:08.000Z</time></trkpt>
        <trkpt lat="29.581844" lon="103.381671"><ele>1001.80133</ele><time>2025-10-11T19:29:56.000Z</time></trkpt>
        <trkpt lat="29.581931" lon="103.381631"><ele>1003.4825</ele><time>2025-10-11T19:30:50.000Z</time></trkpt>
        <trkpt lat="29.581842" lon="103.381686"><ele>1005.16473</ele><time>2025-10-11T19:31:10.000Z</time></trkpt>
        <trkpt lat="29.581746" lon="103.381679"><ele>1004.2428</ele><time>2025-10-11T19:31:19.000Z</time></trkpt>
        <trkpt lat="29.581651" lon="103.381676"><ele>1004.0979</ele><time>2025-10-11T19:31:27.000Z</time></trkpt>
        <trkpt lat="29.581552" lon="103.381656"><ele>1003.0888</ele><time>2025-10-11T19:31:37.000Z</time></trkpt>
        <trkpt lat="29.58148" lon="103.381725"><ele>1004.4899</ele><time>2025-10-11T19:31:49.000Z</time></trkpt>
        <trkpt lat="29.581415" lon="103.381806"><ele>1004.5608</ele><time>2025-10-11T19:32:03.000Z</time></trkpt>
        <trkpt lat="29.581326" lon="103.381833"><ele>1006.1979</ele><time>2025-10-11T19:32:15.000Z</time></trkpt>
        <trkpt lat="29.581257" lon="103.381902"><ele>1002.8003</ele><time>2025-10-11T19:32:27.000Z</time></trkpt>
        <trkpt lat="29.581181" lon="103.381839"><ele>999.64984</ele><time>2025-10-11T19:32:55.000Z</time></trkpt>
        <trkpt lat="29.581113" lon="103.381771"><ele>1000.3893</ele><time>2025-10-11T19:32:57.000Z</time></trkpt>
        <trkpt lat="29.58104" lon="103.381836"><ele>1003.1599</ele><time>2025-10-11T19:33:15.000Z</time></trkpt>
        <trkpt lat="29.58117" lon="103.382001"><ele>999.96985</ele><time>2025-10-11T19:33:27.000Z</time></trkpt>
        <trkpt lat="29.581138" lon="103.382116"><ele>996.35547</ele><time>2025-10-11T19:33:33.000Z</time></trkpt>
        <trkpt lat="29.58114" lon="103.382224"><ele>998.4137</ele><time>2025-10-11T19:33:43.000Z</time></trkpt>
        <trkpt lat="29.581136" lon="103.382331"><ele>997.82416</ele><time>2025-10-11T19:33:53.000Z</time></trkpt>
        <trkpt lat="29.581104" lon="103.382429"><ele>1000.4254</ele><time>2025-10-11T19:34:02.000Z</time></trkpt>
        <trkpt lat="29.581175" lon="103.382498"><ele>1000.5596</ele><time>2025-10-11T19:34:19.000Z</time></trkpt>
        <trkpt lat="29.581255" lon="103.382558"><ele>1001.01544</ele><time>2025-10-11T19:34:27.000Z</time></trkpt>
        <trkpt lat="29.581259" lon="103.382668"><ele>998.88556</ele><time>2025-10-11T19:34:43.000Z</time></trkpt>
        <trkpt lat="29.581253" lon="103.382772"><ele>1000.69684</ele><time>2025-10-11T19:34:56.000Z</time></trkpt>
        <trkpt lat="29.581263" lon="103.382877"><ele>1003.285</ele><time>2025-10-11T19:35:18.000Z</time></trkpt>
        <trkpt lat="29.581271" lon="103.38298"><ele>997.39435</ele><time>2025-10-11T19:36:01.000Z</time></trkpt>
        <trkpt lat="29.581276" lon="103.383092"><ele>990.565</ele><time>2025-10-11T19:36:25.000Z</time></trkpt>
        <trkpt lat="29.581299" lon="103.383191"><ele>987.20197</ele><time>2025-10-11T19:36:53.000Z</time></trkpt>
        <trkpt lat="29.581329" lon="103.383295"><ele>982.0777</ele><time>2025-10-11T19:37:12.000Z</time></trkpt>
        <trkpt lat="29.581418" lon="103.383265"><ele>981.29425</ele><time>2025-10-11T19:37:51.000Z</time></trkpt>
        <trkpt lat="29.581508" lon="103.383224"><ele>982.81433</ele><time>2025-10-11T19:38:03.000Z</time></trkpt>
        <trkpt lat="29.581582" lon="103.383161"><ele>986.0759</ele><time>2025-10-11T19:38:12.000Z</time></trkpt>
        <trkpt lat="29.581643" lon="103.383083"><ele>981.9887</ele><time>2025-10-11T19:38:23.000Z</time></trkpt>
        <trkpt lat="29.581667" lon="103.38297"><ele>978.4803</ele><time>2025-10-11T19:38:34.000Z</time></trkpt>
        <trkpt lat="29.581734" lon="103.3829"><ele>976.73535</ele><time>2025-10-11T19:38:44.000Z</time></trkpt>
        <trkpt lat="29.581805" lon="103.38283"><ele>975.99493</ele><time>2025-10-11T19:39:10.000Z</time></trkpt>
        <trkpt lat="29.581882" lon="103.382775"><ele>972.94904</ele><time>2025-10-11T19:39:31.000Z</time></trkpt>
        <trkpt lat="29.581862" lon="103.382667"><ele>967.04126</ele><time>2025-10-11T19:39:44.000Z</time></trkpt>
        <trkpt lat="29.581959" lon="103.382706"><ele>973.8246</ele><time>2025-10-11T19:39:57.000Z</time></trkpt>
        <trkpt lat="29.581895" lon="103.382622"><ele>976.7083</ele><time>2025-10-11T19:40:07.000Z</time></trkpt>
        <trkpt lat="29.581938" lon="103.382738"><ele>978.46106</ele><time>2025-10-11T19:40:13.000Z</time></trkpt>
        <trkpt lat="29.581867" lon="103.382668"><ele>981.0754</ele><time>2025-10-11T19:40:33.000Z</time></trkpt>
        <trkpt lat="29.581889" lon="103.382554"><ele>976.98413</ele><time>2025-10-11T19:40:50.000Z</time></trkpt>
        <trkpt lat="29.581942" lon="103.382453"><ele>979.70953</ele><time>2025-10-11T19:40:59.000Z</time></trkpt>
        <trkpt lat="29.581997" lon="103.382362"><ele>979.7001</ele><time>2025-10-11T19:41:12.000Z</time></trkpt>
        <trkpt lat="29.582027" lon="103.382258"><ele>982.69324</ele><time>2025-10-11T19:41:22.000Z</time></trkpt>
        <trkpt lat="29.582058" lon="103.382161"><ele>984.5515</ele><time>2025-10-11T19:41:35.000Z</time></trkpt>
        <trkpt lat="29.58207" lon="103.382053"><ele>985.9425</ele><time>2025-10-11T19:41:45.000Z</time></trkpt>
        <trkpt lat="29.582139" lon="103.381979"><ele>984.4207</ele><time>2025-10-11T19:42:16.000Z</time></trkpt>
        <trkpt lat="29.582221" lon="103.381922"><ele>984.85706</ele><time>2025-10-11T19:42:24.000Z</time></trkpt>
        <trkpt lat="29.582276" lon="103.381833"><ele>984.88605</ele><time>2025-10-11T19:42:39.000Z</time></trkpt>
        <trkpt lat="29.582346" lon="103.381767"><ele>986.26154</ele><time>2025-10-11T19:42:57.000Z</time></trkpt>
        <trkpt lat="29.582364" lon="103.381665"><ele>986.8792</ele><time>2025-10-11T19:43:05.000Z</time></trkpt>
        <trkpt lat="29.582429" lon="103.381584"><ele>980.76447</ele><time>2025-10-11T19:43:36.000Z</time></trkpt>
        <trkpt lat="29.582488" lon="103.381502"><ele>979.8187</ele><time>2025-10-11T19:43:46.000Z</time></trkpt>
        <trkpt lat="29.582529" lon="103.381395"><ele>982.17456</ele><time>2025-10-11T19:43:55.000Z</time></trkpt>
        <trkpt lat="29.58257" lon="103.381287"><ele>982.6022</ele><time>2025-10-11T19:44:17.000Z</time></trkpt>
        <trkpt lat="29.582626" lon="103.381196"><ele>982.223</ele><time>2025-10-11T19:44:25.000Z</time></trkpt>
        <trkpt lat="29.582694" lon="103.381111"><ele>983.3932</ele><time>2025-10-11T19:44:33.000Z</time></trkpt>
        <trkpt lat="29.582707" lon="103.381007"><ele>980.22986</ele><time>2025-10-11T19:44:43.000Z</time></trkpt>
        <trkpt lat="29.582705" lon="103.380897"><ele>979.66187</ele><time>2025-10-11T19:44:52.000Z</time></trkpt>
        <trkpt lat="29.582718" lon="103.380793"><ele>981.2964</ele><time>2025-10-11T19:44:59.000Z</time></trkpt>
        <trkpt lat="29.582717" lon="103.380684"><ele>979.5655</ele><time>2025-10-11T19:45:07.000Z</time></trkpt>
        <trkpt lat="29.582736" lon="103.380576"><ele>979.4395</ele><time>2025-10-11T19:45:15.000Z</time></trkpt>
        <trkpt lat="29.582811" lon="103.380503"><ele>981.6765</ele><time>2025-10-11T19:45:24.000Z</time></trkpt>
        <trkpt lat="29.582836" lon="103.380397"><ele>980.3651</ele><time>2025-10-11T19:45:32.000Z</time></trkpt>
        <trkpt lat="29.582875" lon="103.380302"><ele>980.26086</ele><time>2025-10-11T19:45:41.000Z</time></trkpt>
        <trkpt lat="29.582916" lon="103.380202"><ele>978.5746</ele><time>2025-10-11T19:45:49.000Z</time></trkpt>
        <trkpt lat="29.582965" lon="103.380113"><ele>980.8799</ele><time>2025-10-11T19:45:57.000Z</time></trkpt>
        <trkpt lat="29.583008" lon="103.380016"><ele>981.0578</ele><time>2025-10-11T19:46:05.000Z</time></trkpt>
        <trkpt lat="29.582971" lon="103.379903"><ele>982.2487</ele><time>2025-10-11T19:46:21.000Z</time></trkpt>
        <trkpt lat="29.582965" lon="103.379791"><ele>982.6643</ele><time>2025-10-11T19:46:32.000Z</time></trkpt>
        <trkpt lat="29.582883" lon="103.379724"><ele>985.5425</ele><time>2025-10-11T19:46:46.000Z</time></trkpt>
        <trkpt lat="29.582897" lon="103.379615"><ele>993.5043</ele><time>2025-10-11T19:47:09.000Z</time></trkpt>
        <trkpt lat="29.582964" lon="103.379544"><ele>996.1881</ele><time>2025-10-11T19:47:27.000Z</time></trkpt>
        <trkpt lat="29.582879" lon="103.379497"><ele>1002.6066</ele><time>2025-10-11T19:47:41.000Z</time></trkpt>
        <trkpt lat="29.582805" lon="103.379569"><ele>1003.7775</ele><time>2025-10-11T19:47:55.000Z</time></trkpt>
        <trkpt lat="29.58272" lon="103.37961"><ele>1002.2341</ele><time>2025-10-11T19:48:04.000Z</time></trkpt>
        <trkpt lat="29.582632" lon="103.379579"><ele>1002.2629</ele><time>2025-10-11T19:48:14.000Z</time></trkpt>
        <trkpt lat="29.582625" lon="103.379469"><ele>1004.05005</ele><time>2025-10-11T19:48:25.000Z</time></trkpt>
        <trkpt lat="29.58268" lon="103.379369"><ele>1005.2793</ele><time>2025-10-11T19:48:38.000Z</time></trkpt>
        <trkpt lat="29.582702" lon="103.379266"><ele>1005.08606</ele><time>2025-10-11T19:48:46.000Z</time></trkpt>
        <trkpt lat="29.582796" lon="103.379245"><ele>1006.75543</ele><time>2025-10-11T19:48:56.000Z</time></trkpt>
        <trkpt lat="29.582852" lon="103.379164"><ele>1009.44885</ele><time>2025-10-11T19:49:20.000Z</time></trkpt>
        <trkpt lat="29.582869" lon="103.379061"><ele>1007.59937</ele><time>2025-10-11T19:49:31.000Z</time></trkpt>
        <trkpt lat="29.582923" lon="103.378978"><ele>1008.23517</ele><time>2025-10-11T19:49:40.000Z</time></trkpt>
        <trkpt lat="29.582906" lon="103.378874"><ele>1008.26904</ele><time>2025-10-11T19:50:02.000Z</time></trkpt>
        <trkpt lat="29.582928" lon="103.378773"><ele>1016.2423</ele><time>2025-10-11T19:50:19.000Z</time></trkpt>
        <trkpt lat="29.582876" lon="103.378686"><ele>1024.7526</ele><time>2025-10-11T19:50:52.000Z</time></trkpt>
        <trkpt lat="29.582802" lon="103.378624"><ele>1026.5585</ele><time>2025-10-11T19:51:12.000Z</time></trkpt>
        <trkpt lat="29.582721" lon="103.378571"><ele>1034.251</ele><time>2025-10-11T19:51:38.000Z</time></trkpt>
        <trkpt lat="29.582629" lon="103.378587"><ele>1035.0974</ele><time>2025-10-11T19:51:52.000Z</time></trkpt>
        <trkpt lat="29.582594" lon="103.378471"><ele>1040.702</ele><time>2025-10-11T19:52:23.000Z</time></trkpt>
        <trkpt lat="29.582592" lon="103.378361"><ele>1040.445</ele><time>2025-10-11T19:52:37.000Z</time></trkpt>
        <trkpt lat="29.582493" lon="103.378407"><ele>1048.0604</ele><time>2025-10-11T19:53:04.000Z</time></trkpt>
        <trkpt lat="29.582411" lon="103.378493"><ele>1049.589</ele><time>2025-10-11T19:53:07.000Z</time></trkpt>
        <trkpt lat="29.582581" lon="103.37856"><ele>1051.0977</ele><time>2025-10-11T19:53:11.000Z</time></trkpt>
        <trkpt lat="29.582559" lon="103.378434"><ele>1053.5798</ele><time>2025-10-11T19:53:14.000Z</time></trkpt>
        <trkpt lat="29.582656" lon="103.37842"><ele>1056.6494</ele><time>2025-10-11T19:53:19.000Z</time></trkpt>
        <trkpt lat="29.582761" lon="103.378453"><ele>1057.6335</ele><time>2025-10-11T19:53:25.000Z</time></trkpt>
        <trkpt lat="29.582469" lon="103.37837"><ele>1056.9093</ele><time>2025-10-11T19:53:35.000Z</time></trkpt>
        <trkpt lat="29.582436" lon="103.378247"><ele>1056.3457</ele><time>2025-10-11T19:53:39.000Z</time></trkpt>
        <trkpt lat="29.582448" lon="103.378134"><ele>1056.6965</ele><time>2025-10-11T19:53:42.000Z</time></trkpt>
        <trkpt lat="29.58237" lon="103.378139"><ele>1057.4879</ele><time>2025-10-11T19:54:06.000Z</time></trkpt>
        <trkpt lat="29.582368" lon="103.378026"><ele>1055.2603</ele><time>2025-10-11T19:55:23.000Z</time></trkpt>
        <trkpt lat="29.582361" lon="103.37792"><ele>1054.0519</ele><time>2025-10-11T19:55:44.000Z</time></trkpt>
        <trkpt lat="29.582342" lon="103.377815"><ele>1055.4556</ele><time>2025-10-11T19:55:54.000Z</time></trkpt>
        <trkpt lat="29.582333" lon="103.377711"><ele>1057.6559</ele><time>2025-10-11T19:56:10.000Z</time></trkpt>
        <trkpt lat="29.582331" lon="103.377602"><ele>1062.9886</ele><time>2025-10-11T19:56:34.000Z</time></trkpt>
        <trkpt lat="29.582402" lon="103.377537"><ele>1066.814</ele><time>2025-10-11T19:56:58.000Z</time></trkpt>
        <trkpt lat="29.582378" lon="103.377436"><ele>1073.434</ele><time>2025-10-11T19:57:29.000Z</time></trkpt>
        <trkpt lat="29.582216" lon="103.377468"><ele>1075.6188</ele><time>2025-10-11T19:57:50.000Z</time></trkpt>
        <trkpt lat="29.582293" lon="103.377401"><ele>1079.5712</ele><time>2025-10-11T19:58:00.000Z</time></trkpt>
        <trkpt lat="29.582372" lon="103.377348"><ele>1088.1329</ele><time>2025-10-11T19:58:03.000Z</time></trkpt>
        <trkpt lat="29.582273" lon="103.377337"><ele>1086.6428</ele><time>2025-10-11T19:58:37.000Z</time></trkpt>
        <trkpt lat="29.582209" lon="103.37726"><ele>1085.1066</ele><time>2025-10-11T19:58:49.000Z</time></trkpt>
        <trkpt lat="29.582182" lon="103.377161"><ele>1088.418</ele><time>2025-10-11T19:59:30.000Z</time></trkpt>
        <trkpt lat="29.582123" lon="103.37708"><ele>1103.3303</ele><time>2025-10-11T20:00:24.000Z</time></trkpt>
        <trkpt lat="29.582126" lon="103.376972"><ele>1107.7122</ele><time>2025-10-11T20:01:17.000Z</time></trkpt>
        <trkpt lat="29.582126" lon="103.376867"><ele>1113.2168</ele><time>2025-10-11T20:01:48.000Z</time></trkpt>
        <trkpt lat="29.582107" lon="103.376764"><ele>1117.5333</ele><time>2025-10-11T20:02:25.000Z</time></trkpt>
        <trkpt lat="29.582029" lon="103.376709"><ele>1121.5306</ele><time>2025-10-11T20:03:11.000Z</time></trkpt>
        <trkpt lat="29.582027" lon="103.376603"><ele>1126.7788</ele><time>2025-10-11T20:03:51.000Z</time></trkpt>
        <trkpt lat="29.581946" lon="103.376554"><ele>1134.9167</ele><time>2025-10-11T20:04:58.000Z</time></trkpt>
        <trkpt lat="29.581857" lon="103.376573"><ele>1147.0437</ele><time>2025-10-11T20:05:56.000Z</time></trkpt>
        <trkpt lat="29.581763" lon="103.376545"><ele>1150.1732</ele><time>2025-10-11T20:06:28.000Z</time></trkpt>
        <trkpt lat="29.581846" lon="103.376481"><ele>1147.4484</ele><time>2025-10-11T20:08:08.000Z</time></trkpt>
        <trkpt lat="29.581769" lon="103.37641"><ele>1151.4044</ele><time>2025-10-11T20:08:41.000Z</time></trkpt>
        <trkpt lat="29.581781" lon="103.3763"><ele>1155.7488</ele><time>2025-10-11T20:09:07.000Z</time></trkpt>
        <trkpt lat="29.581709" lon="103.376228"><ele>1155.8457</ele><time>2025-10-11T20:10:02.000Z</time></trkpt>
        <trkpt lat="29.581791" lon="103.376275"><ele>1156.5538</ele><time>2025-10-11T20:10:15.000Z</time></trkpt>
        <trkpt lat="29.581804" lon="103.376392"><ele>1156.4753</ele><time>2025-10-11T20:10:18.000Z</time></trkpt>
        <trkpt lat="29.581711" lon="103.376351"><ele>1156.6284</ele><time>2025-10-11T20:10:22.000Z</time></trkpt>
        <trkpt lat="29.581641" lon="103.376284"><ele>1157.1038</ele><time>2025-10-11T20:10:27.000Z</time></trkpt>
        <trkpt lat="29.581541" lon="103.376295"><ele>1161.4395</ele><time>2025-10-11T20:10:47.000Z</time></trkpt>
        <trkpt lat="29.581501" lon="103.37639"><ele>1175.739</ele><time>2025-10-11T20:11:52.000Z</time></trkpt>
        <trkpt lat="29.58141" lon="103.376346"><ele>1172.2065</ele><time>2025-10-11T20:12:03.000Z</time></trkpt>
        <trkpt lat="29.58132" lon="103.376349"><ele>1180.7991</ele><time>2025-10-11T20:12:59.000Z</time></trkpt>
        <trkpt lat="29.581262" lon="103.376431"><ele>1192.5845</ele><time>2025-10-11T20:20:04.000Z</time></trkpt>
        <trkpt lat="29.581199" lon="103.376506"><ele>1195.4846</ele><time>2025-10-11T20:20:36.000Z</time></trkpt>
        <trkpt lat="29.5811" lon="103.376466"><ele>1192.4471</ele><time>2025-10-11T20:20:43.000Z</time></trkpt>
        <trkpt lat="29.581004" lon="103.376424"><ele>1190.7568</ele><time>2025-10-11T20:20:50.000Z</time></trkpt>
        <trkpt lat="29.58108" lon="103.37649"><ele>1197.7958</ele><time>2025-10-11T20:21:34.000Z</time></trkpt>
        <trkpt lat="29.581002" lon="103.376421"><ele>1205.9095</ele><time>2025-10-11T20:22:12.000Z</time></trkpt>
        <trkpt lat="29.580908" lon="103.37644"><ele>1218.1659</ele><time>2025-10-11T20:23:36.000Z</time></trkpt>
        <trkpt lat="29.580938" lon="103.376341"><ele>1215.0991</ele><time>2025-10-11T20:23:51.000Z</time></trkpt>
        <trkpt lat="29.581016" lon="103.376288"><ele>1227.0427</ele><time>2025-10-11T20:25:04.000Z</time></trkpt>
        <trkpt lat="29.580966" lon="103.376161"><ele>1227.5781</ele><time>2025-10-11T20:25:07.000Z</time></trkpt>
        <trkpt lat="29.580874" lon="103.376207"><ele>1232.3698</ele><time>2025-10-11T20:26:35.000Z</time></trkpt>
        <trkpt lat="29.580796" lon="103.376261"><ele>1236.0918</ele><time>2025-10-11T20:26:41.000Z</time></trkpt>
        <trkpt lat="29.580695" lon="103.376295"><ele>1232.9388</ele><time>2025-10-11T20:27:36.000Z</time></trkpt>
        <trkpt lat="29.580598" lon="103.376295"><ele>1230.5448</ele><time>2025-10-11T20:27:42.000Z</time></trkpt>
        <trkpt lat="29.580659" lon="103.376379"><ele>1230.7303</ele><time>2025-10-11T20:27:45.000Z</time></trkpt>
        <trkpt lat="29.580582" lon="103.376478"><ele>1230.4281</ele><time>2025-10-11T20:27:51.000Z</time></trkpt>
        <trkpt lat="29.580533" lon="103.376524"><ele>1230.5258</ele><time>2025-10-11T20:27:59.000Z</time></trkpt>
        <trkpt lat="29.580662" lon="103.376467"><ele>1230.0676</ele><time>2025-10-11T20:28:04.000Z</time></trkpt>
        <trkpt lat="29.580742" lon="103.376416"><ele>1228.8749</ele><time>2025-10-11T20:28:14.000Z</time></trkpt>
        <trkpt lat="29.580691" lon="103.376234"><ele>1230.2894</ele><time>2025-10-11T20:28:23.000Z</time></trkpt>
        <trkpt lat="29.580768" lon="103.376147"><ele>1237.1287</ele><time>2025-10-11T20:28:40.000Z</time></trkpt>
        <trkpt lat="29.580795" lon="103.376274"><ele>1240.6216</ele><time>2025-10-11T20:28:52.000Z</time></trkpt>
        <trkpt lat="29.580824" lon="103.376374"><ele>1241.4185</ele><time>2025-10-11T20:28:54.000Z</time></trkpt>
        <trkpt lat="29.580771" lon="103.376478"><ele>1240.5968</ele><time>2025-10-11T20:28:57.000Z</time></trkpt>
        <trkpt lat="29.580703" lon="103.376391"><ele>1239.0775</ele><time>2025-10-11T20:28:58.000Z</time></trkpt>
        <trkpt lat="29.580773" lon="103.376476"><ele>1240.2197</ele><time>2025-10-11T20:29:00.000Z</time></trkpt>
        <trkpt lat="29.58086" lon="103.37652"><ele>1239.8822</ele><time>2025-10-11T20:29:03.000Z</time></trkpt>
        <trkpt lat="29.580838" lon="103.376632"><ele>1239.8989</ele><time>2025-10-11T20:29:05.000Z</time></trkpt>
        <trkpt lat="29.580827" lon="103.376483"><ele>1243.4983</ele><time>2025-10-11T20:29:09.000Z</time></trkpt>
        <trkpt lat="29.580826" lon="103.376352"><ele>1237.5667</ele><time>2025-10-11T20:29:29.000Z</time></trkpt>
        <trkpt lat="29.580742" lon="103.376313"><ele>1243.377</ele><time>2025-10-11T20:30:20.000Z</time></trkpt>
        <trkpt lat="29.580647" lon="103.376329"><ele>1237.775</ele><time>2025-10-11T20:31:56.000Z</time></trkpt>
        <trkpt lat="29.58055" lon="103.376323"><ele>1236.2646</ele><time>2025-10-11T20:32:09.000Z</time></trkpt>
        <trkpt lat="29.580473" lon="103.376385"><ele>1241.101</ele><time>2025-10-11T20:32:19.000Z</time></trkpt>
        <trkpt lat="29.580378" lon="103.376374"><ele>1240.4628</ele><time>2025-10-11T20:32:28.000Z</time></trkpt>
        <trkpt lat="29.580292" lon="103.376339"><ele>1239.7448</ele><time>2025-10-11T20:32:39.000Z</time></trkpt>
        <trkpt lat="29.580198" lon="103.37633"><ele>1237.3009</ele><time>2025-10-11T20:32:49.000Z</time></trkpt>
        <trkpt lat="29.58011" lon="103.376286"><ele>1235.4092</ele><time>2025-10-11T20:32:59.000Z</time></trkpt>
        <trkpt lat="29.580019" lon="103.376226"><ele>1238.2296</ele><time>2025-10-11T20:33:10.000Z</time></trkpt>
        <trkpt lat="29.57999" lon="103.376117"><ele>1234.5842</ele><time>2025-10-11T20:33:39.000Z</time></trkpt>
        <trkpt lat="29.579929" lon="103.376034"><ele>1235.8188</ele><time>2025-10-11T20:33:50.000Z</time></trkpt>
        <trkpt lat="29.579902" lon="103.375934"><ele>1247.6123</ele><time>2025-10-11T20:35:59.000Z</time></trkpt>
        <trkpt lat="29.579864" lon="103.375839"><ele>1246.0912</ele><time>2025-10-11T20:36:24.000Z</time></trkpt>
        <trkpt lat="29.579883" lon="103.37573"><ele>1242.4595</ele><time>2025-10-11T20:36:35.000Z</time></trkpt>
        <trkpt lat="29.580005" lon="103.37575"><ele>1244.1962</ele><time>2025-10-11T20:36:50.000Z</time></trkpt>
        <trkpt lat="29.579935" lon="103.375764"><ele>1241.9923</ele><time>2025-10-11T20:37:13.000Z</time></trkpt>
        <trkpt lat="29.580001" lon="103.375692"><ele>1256.8059</ele><time>2025-10-11T20:38:19.000Z</time></trkpt>
        <trkpt lat="29.580049" lon="103.375601"><ele>1252.3193</ele><time>2025-10-11T20:38:23.000Z</time></trkpt>
        <trkpt lat="29.57997" lon="103.375656"><ele>1249.2722</ele><time>2025-10-11T20:39:15.000Z</time></trkpt>
        <trkpt lat="29.580004" lon="103.375555"><ele>1266.8782</ele><time>2025-10-11T20:39:43.000Z</time></trkpt>
        <trkpt lat="29.580094" lon="103.375556"><ele>1258.5896</ele><time>2025-10-11T20:40:22.000Z</time></trkpt>
        <trkpt lat="29.580192" lon="103.375547"><ele>1260.9052</ele><time>2025-10-11T20:40:56.000Z</time></trkpt>
        <trkpt lat="29.580285" lon="103.375488"><ele>1264.8519</ele><time>2025-10-11T20:41:24.000Z</time></trkpt>
        <trkpt lat="29.580339" lon="103.375582"><ele>1264.6427</ele><time>2025-10-11T20:41:54.000Z</time></trkpt>
        <trkpt lat="29.580421" lon="103.37553"><ele>1269.8531</ele><time>2025-10-11T20:42:27.000Z</time></trkpt>
        <trkpt lat="29.580489" lon="103.375443"><ele>1276.3683</ele><time>2025-10-11T20:42:40.000Z</time></trkpt>
        <trkpt lat="29.580561" lon="103.375515"><ele>1281.9894</ele><time>2025-10-11T20:43:49.000Z</time></trkpt>
        <trkpt lat="29.580641" lon="103.375447"><ele>1280.7341</ele><time>2025-10-11T20:44:33.000Z</time></trkpt>
        <trkpt lat="29.580746" lon="103.375465"><ele>1285.8562</ele><time>2025-10-11T20:44:59.000Z</time></trkpt>
        <trkpt lat="29.580767" lon="103.37535"><ele>1287.7104</ele><time>2025-10-11T20:45:12.000Z</time></trkpt>
        <trkpt lat="29.580806" lon="103.375238"><ele>1287.1892</ele><time>2025-10-11T20:45:16.000Z</time></trkpt>
        <trkpt lat="29.580688" lon="103.375206"><ele>1286.4417</ele><time>2025-10-11T20:45:25.000Z</time></trkpt>
        <trkpt lat="29.580607" lon="103.375108"><ele>1287.8436</ele><time>2025-10-11T20:45:29.000Z</time></trkpt>
        <trkpt lat="29.580562" lon="103.375119"><ele>1289.6246</ele><time>2025-10-11T20:45:49.000Z</time></trkpt>
        <trkpt lat="29.58064" lon="103.375254"><ele>1290.896</ele><time>2025-10-11T20:45:50.000Z</time></trkpt>
        <trkpt lat="29.580705" lon="103.375345"><ele>1300.3168</ele><time>2025-10-11T20:46:16.000Z</time></trkpt>
        <trkpt lat="29.580703" lon="103.375231"><ele>1293.0045</ele><time>2025-10-11T20:46:43.000Z</time></trkpt>
        <trkpt lat="29.580801" lon="103.375224"><ele>1291.0972</ele><time>2025-10-11T20:47:17.000Z</time></trkpt>
        <trkpt lat="29.580904" lon="103.375313"><ele>1289.8481</ele><time>2025-10-11T20:47:19.000Z</time></trkpt>
        <trkpt lat="29.580986" lon="103.375444"><ele>1289.2668</ele><time>2025-10-11T20:47:21.000Z</time></trkpt>
        <trkpt lat="29.581061" lon="103.375563"><ele>1288.5175</ele><time>2025-10-11T20:47:23.000Z</time></trkpt>
        <trkpt lat="29.581159" lon="103.375762"><ele>1288.446</ele><time>2025-10-11T20:47:26.000Z</time></trkpt>
        <trkpt lat="29.581205" lon="103.375851"><ele>1289.0541</ele><time>2025-10-11T20:47:27.000Z</time></trkpt>
        <trkpt lat="29.581235" lon="103.376047"><ele>1288.7653</ele><time>2025-10-11T20:47:31.000Z</time></trkpt>
        <trkpt lat="29.581202" lon="103.375905"><ele>1288.5841</ele><time>2025-10-11T20:47:34.000Z</time></trkpt>
        <trkpt lat="29.581091" lon="103.375678"><ele>1287.3967</ele><time>2025-10-11T20:47:37.000Z</time></trkpt>
        <trkpt lat="29.580979" lon="103.37556"><ele>1288.8872</ele><time>2025-10-11T20:47:54.000Z</time></trkpt>
        <trkpt lat="29.580795" lon="103.37516"><ele>1288.2544</ele><time>2025-10-11T20:48:04.000Z</time></trkpt>
        <trkpt lat="29.580744" lon="103.375073"><ele>1307.8842</ele><time>2025-10-11T20:48:49.000Z</time></trkpt>
        <trkpt lat="29.580737" lon="103.374963"><ele>1307.282</ele><time>2025-10-11T20:49:35.000Z</time></trkpt>
        <trkpt lat="29.580707" lon="103.37486"><ele>1315.965</ele><time>2025-10-11T20:52:53.000Z</time></trkpt>
        <trkpt lat="29.580682" lon="103.374758"><ele>1321.6326</ele><time>2025-10-11T20:54:34.000Z</time></trkpt>
        <trkpt lat="29.580699" lon="103.374654"><ele>1322.4111</ele><time>2025-10-11T20:55:54.000Z</time></trkpt>
        <trkpt lat="29.580694" lon="103.374551"><ele>1328.187</ele><time>2025-10-11T20:56:34.000Z</time></trkpt>
        <trkpt lat="29.580711" lon="103.374448"><ele>1331.9537</ele><time>2025-10-11T20:56:58.000Z</time></trkpt>
        <trkpt lat="29.580705" lon="103.374342"><ele>1337.5449</ele><time>2025-10-11T20:57:21.000Z</time></trkpt>
        <trkpt lat="29.580719" lon="103.374239"><ele>1335.6436</ele><time>2025-10-11T20:58:02.000Z</time></trkpt>
        <trkpt lat="29.580714" lon="103.374136"><ele>1346.6876</ele><time>2025-10-11T20:58:53.000Z</time></trkpt>
        <trkpt lat="29.58075" lon="103.374024"><ele>1345.9034</ele><time>2025-10-11T21:00:04.000Z</time></trkpt>
        <trkpt lat="29.580691" lon="103.374106"><ele>1337.6464</ele><time>2025-10-11T21:00:57.000Z</time></trkpt>
        <trkpt lat="29.580643" lon="103.374198"><ele>1348.1704</ele><time>2025-10-11T21:04:02.000Z</time></trkpt>
        <trkpt lat="29.580734" lon="103.374189"><ele>1344.657</ele><time>2025-10-11T21:04:39.000Z</time></trkpt>
        <trkpt lat="29.580641" lon="103.37421"><ele>1350.2593</ele><time>2025-10-11T21:04:59.000Z</time></trkpt>
        <trkpt lat="29.580637" lon="103.374104"><ele>1354.802</ele><time>2025-10-11T21:07:09.000Z</time></trkpt>
        <trkpt lat="29.580722" lon="103.374138"><ele>1349.3893</ele><time>2025-10-11T21:08:36.000Z</time></trkpt>
        <trkpt lat="29.58072" lon="103.374029"><ele>1343.6062</ele><time>2025-10-11T21:08:53.000Z</time></trkpt>
        <trkpt lat="29.580676" lon="103.374122"><ele>1342.4569</ele><time>2025-10-11T21:11:05.000Z</time></trkpt>
        <trkpt lat="29.580652" lon="103.374227"><ele>1352.1763</ele><time>2025-10-11T21:11:57.000Z</time></trkpt>
        <trkpt lat="29.580676" lon="103.374122"><ele>1346.1202</ele><time>2025-10-11T21:12:34.000Z</time></trkpt>
        <trkpt lat="29.580671" lon="103.374007"><ele>1348.1729</ele><time>2025-10-11T21:16:53.000Z</time></trkpt>
        <trkpt lat="29.580628" lon="103.373911"><ele>1342.8074</ele><time>2025-10-11T21:17:12.000Z</time></trkpt>
        <trkpt lat="29.580538" lon="103.373868"><ele>1347.0096</ele><time>2025-10-11T21:17:27.000Z</time></trkpt>
        <trkpt lat="29.580452" lon="103.373817"><ele>1355.2828</ele><time>2025-10-11T21:17:51.000Z</time></trkpt>
        <trkpt lat="29.580397" lon="103.373727"><ele>1356.852</ele><time>2025-10-11T21:18:06.000Z</time></trkpt>
        <trkpt lat="29.580321" lon="103.373657"><ele>1347.6161</ele><time>2025-10-11T21:21:33.000Z</time></trkpt>
        <trkpt lat="29.580263" lon="103.373571"><ele>1346.3815</ele><time>2025-10-11T21:22:17.000Z</time></trkpt>
        <trkpt lat="29.580202" lon="103.373489"><ele>1342.5472</ele><time>2025-10-11T21:22:31.000Z</time></trkpt>
        <trkpt lat="29.580138" lon="103.373413"><ele>1356.8542</ele><time>2025-10-11T21:23:49.000Z</time></trkpt>
        <trkpt lat="29.580045" lon="103.373389"><ele>1359.9117</ele><time>2025-10-11T21:24:07.000Z</time></trkpt>
        <trkpt lat="29.579971" lon="103.373324"><ele>1368.9121</ele><time>2025-10-11T21:24:26.000Z</time></trkpt>
        <trkpt lat="29.579913" lon="103.373211"><ele>1371.4103</ele><time>2025-10-11T21:25:11.000Z</time></trkpt>
        <trkpt lat="29.579816" lon="103.37321"><ele>1383.3629</ele><time>2025-10-11T21:25:47.000Z</time></trkpt>
        <trkpt lat="29.579797" lon="103.373108"><ele>1374.891</ele><time>2025-10-11T21:26:10.000Z</time></trkpt>
        <trkpt lat="29.579754" lon="103.373012"><ele>1373.3876</ele><time>2025-10-11T21:26:45.000Z</time></trkpt>
        <trkpt lat="29.579707" lon="103.372919"><ele>1379.0526</ele><time>2025-10-11T21:28:02.000Z</time></trkpt>
        <trkpt lat="29.579624" lon="103.372878"><ele>1384.2319</ele><time>2025-10-11T21:28:44.000Z</time></trkpt>
        <trkpt lat="29.579533" lon="103.372878"><ele>1387.1921</ele><time>2025-10-11T21:29:26.000Z</time></trkpt>
        <trkpt lat="29.579448" lon="103.372837"><ele>1391.4207</ele><time>2025-10-11T21:29:40.000Z</time></trkpt>
        <trkpt lat="29.579389" lon="103.372752"><ele>1396.8866</ele><time>2025-10-11T21:30:19.000Z</time></trkpt>
        <trkpt lat="29.579381" lon="103.372645"><ele>1396.92</ele><time>2025-10-11T21:31:05.000Z</time></trkpt>
        <trkpt lat="29.579292" lon="103.372625"><ele>1398.6349</ele><time>2025-10-11T21:31:32.000Z</time></trkpt>
        <trkpt lat="29.579224" lon="103.372552"><ele>1401.9933</ele><time>2025-10-11T21:31:46.000Z</time></trkpt>
        <trkpt lat="29.579131" lon="103.372567"><ele>1407.1205</ele><time>2025-10-11T21:31:55.000Z</time></trkpt>
        <trkpt lat="29.579039" lon="103.372585"><ele>1413.2317</ele><time>2025-10-11T21:32:06.000Z</time></trkpt>
        <trkpt lat="29.578968" lon="103.37252"><ele>1415.1489</ele><time>2025-10-11T21:32:19.000Z</time></trkpt>
        <trkpt lat="29.578955" lon="103.372413"><ele>1411.5684</ele><time>2025-10-11T21:32:31.000Z</time></trkpt>
        <trkpt lat="29.578899" lon="103.37233"><ele>1410.534</ele><time>2025-10-11T21:33:00.000Z</time></trkpt>
        <trkpt lat="29.578809" lon="103.372297"><ele>1412.3507</ele><time>2025-10-11T21:33:11.000Z</time></trkpt>
        <trkpt lat="29.578731" lon="103.372239"><ele>1412.5901</ele><time>2025-10-11T21:33:19.000Z</time></trkpt>
        <trkpt lat="29.578678" lon="103.372145"><ele>1411.7986</ele><time>2025-10-11T21:33:28.000Z</time></trkpt>
        <trkpt lat="29.578617" lon="103.372067"><ele>1410.3484</ele><time>2025-10-11T21:33:43.000Z</time></trkpt>
        <trkpt lat="29.578533" lon="103.372024"><ele>1414.7655</ele><time>2025-10-11T21:34:15.000Z</time></trkpt>
        <trkpt lat="29.57849" lon="103.371931"><ele>1416.2299</ele><time>2025-10-11T21:34:31.000Z</time></trkpt>
        <trkpt lat="29.578428" lon="103.371849"><ele>1417.6609</ele><time>2025-10-11T21:34:44.000Z</time></trkpt>
        <trkpt lat="29.578396" lon="103.37174"><ele>1423.0586</ele><time>2025-10-11T21:34:59.000Z</time></trkpt>
        <trkpt lat="29.578336" lon="103.371657"><ele>1424.0302</ele><time>2025-10-11T21:35:10.000Z</time></trkpt>
        <trkpt lat="29.578257" lon="103.371604"><ele>1423.2692</ele><time>2025-10-11T21:35:23.000Z</time></trkpt>
        <trkpt lat="29.578169" lon="103.371552"><ele>1428.4983</ele><time>2025-10-11T21:35:48.000Z</time></trkpt>
        <trkpt lat="29.578103" lon="103.371479"><ele>1433.3048</ele><time>2025-10-11T21:36:44.000Z</time></trkpt>
        <trkpt lat="29.578088" lon="103.371361"><ele>1436.2632</ele><time>2025-10-11T21:36:52.000Z</time></trkpt>
        <trkpt lat="29.578045" lon="103.371468"><ele>1438.3586</ele><time>2025-10-11T21:37:09.000Z</time></trkpt>
        <trkpt lat="29.578038" lon="103.371592"><ele>1437.1866</ele><time>2025-10-11T21:37:14.000Z</time></trkpt>
        <trkpt lat="29.577948" lon="103.371566"><ele>1440.6265</ele><time>2025-10-11T21:37:23.000Z</time></trkpt>
        <trkpt lat="29.577881" lon="103.371637"><ele>1443.3291</ele><time>2025-10-11T21:37:29.000Z</time></trkpt>
        <trkpt lat="29.577838" lon="103.371539"><ele>1444.7788</ele><time>2025-10-11T21:37:34.000Z</time></trkpt>
        <trkpt lat="29.577896" lon="103.371457"><ele>1451.5443</ele><time>2025-10-11T21:37:52.000Z</time></trkpt>
        <trkpt lat="29.57796" lon="103.37138"><ele>1454.9983</ele><time>2025-10-11T21:38:11.000Z</time></trkpt>
        <trkpt lat="29.577875" lon="103.371331"><ele>1455.8676</ele><time>2025-10-11T21:38:25.000Z</time></trkpt>
        <trkpt lat="29.57781" lon="103.371255"><ele>1453.82</ele><time>2025-10-11T21:38:45.000Z</time></trkpt>
        <trkpt lat="29.577728" lon="103.371209"><ele>1458.4799</ele><time>2025-10-11T21:39:24.000Z</time></trkpt>
        <trkpt lat="29.577644" lon="103.371164"><ele>1460.729</ele><time>2025-10-11T21:40:13.000Z</time></trkpt>
        <trkpt lat="29.577589" lon="103.371077"><ele>1463.4407</ele><time>2025-10-11T21:40:31.000Z</time></trkpt>
        <trkpt lat="29.57754" lon="103.370988"><ele>1467.2323</ele><time>2025-10-11T21:40:57.000Z</time></trkpt>
        <trkpt lat="29.577588" lon="103.370897"><ele>1466.1237</ele><time>2025-10-11T21:41:07.000Z</time></trkpt>
        <trkpt lat="29.577522" lon="103.370822"><ele>1465.5338</ele><time>2025-10-11T21:41:17.000Z</time></trkpt>
        <trkpt lat="29.577456" lon="103.370732"><ele>1465.4073</ele><time>2025-10-11T21:41:27.000Z</time></trkpt>
        <trkpt lat="29.57739" lon="103.37065"><ele>1467.1609</ele><time>2025-10-11T21:41:39.000Z</time></trkpt>
        <trkpt lat="29.577327" lon="103.370566"><ele>1464.1731</ele><time>2025-10-11T21:41:51.000Z</time></trkpt>
        <trkpt lat="29.577254" lon="103.370488"><ele>1465.045</ele><time>2025-10-11T21:42:00.000Z</time></trkpt>
        <trkpt lat="29.577201" lon="103.370402"><ele>1463.5378</ele><time>2025-10-11T21:42:18.000Z</time></trkpt>
        <trkpt lat="29.577151" lon="103.370313"><ele>1462.5024</ele><time>2025-10-11T21:42:36.000Z</time></trkpt>
        <trkpt lat="29.577071" lon="103.370244"><ele>1460.9092</ele><time>2025-10-11T21:42:45.000Z</time></trkpt>
        <trkpt lat="29.577023" lon="103.370157"><ele>1462.5847</ele><time>2025-10-11T21:42:54.000Z</time></trkpt>
        <trkpt lat="29.576958" lon="103.370081"><ele>1463.3696</ele><time>2025-10-11T21:43:00.000Z</time></trkpt>
        <trkpt lat="29.576937" lon="103.369981"><ele>1465.497</ele><time>2025-10-11T21:43:07.000Z</time></trkpt>
        <trkpt lat="29.577026" lon="103.369876"><ele>1466.7677</ele><time>2025-10-11T21:43:20.000Z</time></trkpt>
        <trkpt lat="29.576987" lon="103.369768"><ele>1468.361</ele><time>2025-10-11T21:43:32.000Z</time></trkpt>
        <trkpt lat="29.576978" lon="103.369655"><ele>1469.9277</ele><time>2025-10-11T21:43:43.000Z</time></trkpt>
        <trkpt lat="29.576952" lon="103.369552"><ele>1468.9801</ele><time>2025-10-11T21:43:56.000Z</time></trkpt>
        <trkpt lat="29.576907" lon="103.369452"><ele>1469.4713</ele><time>2025-10-11T21:44:08.000Z</time></trkpt>
        <trkpt lat="29.576953" lon="103.369362"><ele>1469.0029</ele><time>2025-10-11T21:44:22.000Z</time></trkpt>
        <trkpt lat="29.576976" lon="103.369256"><ele>1471.1396</ele><time>2025-10-11T21:44:41.000Z</time></trkpt>
        <trkpt lat="29.57693" lon="103.36916"><ele>1471.5045</ele><time>2025-10-11T21:44:51.000Z</time></trkpt>
        <trkpt lat="29.576949" lon="103.369055"><ele>1472.1781</ele><time>2025-10-11T21:45:00.000Z</time></trkpt>
        <trkpt lat="29.576973" lon="103.368947"><ele>1475.4548</ele><time>2025-10-11T21:45:07.000Z</time></trkpt>
        <trkpt lat="29.576979" lon="103.368843"><ele>1476.9576</ele><time>2025-10-11T21:45:14.000Z</time></trkpt>
        <trkpt lat="29.576989" lon="103.368735"><ele>1476.0286</ele><time>2025-10-11T21:45:26.000Z</time></trkpt>
        <trkpt lat="29.576995" lon="103.368628"><ele>1477.8081</ele><time>2025-10-11T21:45:33.000Z</time></trkpt>
        <trkpt lat="29.577" lon="103.368525"><ele>1477.5931</ele><time>2025-10-11T21:45:41.000Z</time></trkpt>
        <trkpt lat="29.577036" lon="103.368427"><ele>1477.2466</ele><time>2025-10-11T21:45:53.000Z</time></trkpt>
        <trkpt lat="29.577074" lon="103.36833"><ele>1479.8157</ele><time>2025-10-11T21:46:14.000Z</time></trkpt>
        <trkpt lat="29.577047" lon="103.368229"><ele>1487.0153</ele><time>2025-10-11T21:46:28.000Z</time></trkpt>
        <trkpt lat="29.577012" lon="103.368106"><ele>1481.4071</ele><time>2025-10-11T21:47:03.000Z</time></trkpt>
        <trkpt lat="29.576919" lon="103.368104"><ele>1477.2043</ele><time>2025-10-11T21:47:10.000Z</time></trkpt>
        <trkpt lat="29.57701" lon="103.368064"><ele>1480.2025</ele><time>2025-10-11T21:47:27.000Z</time></trkpt>
        <trkpt lat="29.577101" lon="103.368032"><ele>1485.2163</ele><time>2025-10-11T21:47:37.000Z</time></trkpt>
        <trkpt lat="29.577149" lon="103.367921"><ele>1485.3077</ele><time>2025-10-11T21:47:43.000Z</time></trkpt>
        <trkpt lat="29.577186" lon="103.368029"><ele>1488.02</ele><time>2025-10-11T21:47:59.000Z</time></trkpt>
        <trkpt lat="29.577295" lon="103.367958"><ele>1488.8666</ele><time>2025-10-11T21:48:14.000Z</time></trkpt>
        <trkpt lat="29.577134" lon="103.367878"><ele>1494.32</ele><time>2025-10-11T21:48:40.000Z</time></trkpt>
        <trkpt lat="29.577145" lon="103.367768"><ele>1498.7188</ele><time>2025-10-11T21:48:58.000Z</time></trkpt>
        <trkpt lat="29.577227" lon="103.367841"><ele>1500.0485</ele><time>2025-10-11T21:49:15.000Z</time></trkpt>
        <trkpt lat="29.577228" lon="103.367725"><ele>1506.2965</ele><time>2025-10-11T21:49:39.000Z</time></trkpt>
        <trkpt lat="29.57713" lon="103.367703"><ele>1506.8678</ele><time>2025-10-11T21:49:56.000Z</time></trkpt>
        <trkpt lat="29.577088" lon="103.367601"><ele>1505.3265</ele><time>2025-10-11T21:50:03.000Z</time></trkpt>
        <trkpt lat="29.57703" lon="103.367518"><ele>1502.9539</ele><time>2025-10-11T21:50:17.000Z</time></trkpt>
        <trkpt lat="29.576992" lon="103.36742"><ele>1503.7584</ele><time>2025-10-11T21:50:25.000Z</time></trkpt>
        <trkpt lat="29.576968" lon="103.367319"><ele>1505.8234</ele><time>2025-10-11T21:50:58.000Z</time></trkpt>
        <trkpt lat="29.576873" lon="103.367296"><ele>1499.3695</ele><time>2025-10-11T21:51:11.000Z</time></trkpt>
        <trkpt lat="29.576799" lon="103.367223"><ele>1499.2898</ele><time>2025-10-11T21:51:20.000Z</time></trkpt>
        <trkpt lat="29.576752" lon="103.367128"><ele>1500.4199</ele><time>2025-10-11T21:51:28.000Z</time></trkpt>
        <trkpt lat="29.576685" lon="103.367057"><ele>1497.1724</ele><time>2025-10-11T21:51:36.000Z</time></trkpt>
        <trkpt lat="29.576631" lon="103.366963"><ele>1494.1132</ele><time>2025-10-11T21:51:46.000Z</time></trkpt>
        <trkpt lat="29.576573" lon="103.366875"><ele>1494.386</ele><time>2025-10-11T21:51:56.000Z</time></trkpt>
        <trkpt lat="29.576494" lon="103.366807"><ele>1494.4467</ele><time>2025-10-11T21:52:04.000Z</time></trkpt>
        <trkpt lat="29.576421" lon="103.366737"><ele>1497.513</ele><time>2025-10-11T21:52:12.000Z</time></trkpt>
        <trkpt lat="29.576372" lon="103.366639"><ele>1498.2767</ele><time>2025-10-11T21:52:20.000Z</time></trkpt>
        <trkpt lat="29.576338" lon="103.366534"><ele>1496.4531</ele><time>2025-10-11T21:52:34.000Z</time></trkpt>
        <trkpt lat="29.57628" lon="103.366439"><ele>1494.34</ele><time>2025-10-11T21:52:50.000Z</time></trkpt>
        <trkpt lat="29.576296" lon="103.366337"><ele>1493.0908</ele><time>2025-10-11T21:53:00.000Z</time></trkpt>
        <trkpt lat="29.576277" lon="103.36623"><ele>1490.9092</ele><time>2025-10-11T21:53:20.000Z</time></trkpt>
        <trkpt lat="29.576242" lon="103.366126"><ele>1483.2374</ele><time>2025-10-11T21:53:40.000Z</time></trkpt>
        <trkpt lat="29.576168" lon="103.366056"><ele>1478.3346</ele><time>2025-10-11T21:53:55.000Z</time></trkpt>
        <trkpt lat="29.576114" lon="103.365971"><ele>1476.3976</ele><time>2025-10-11T21:54:04.000Z</time></trkpt>
        <trkpt lat="29.576021" lon="103.365942"><ele>1476.4769</ele><time>2025-10-11T21:54:13.000Z</time></trkpt>
        <trkpt lat="29.575971" lon="103.365845"><ele>1476.4703</ele><time>2025-10-11T21:54:26.000Z</time></trkpt>
        <trkpt lat="29.575882" lon="103.365815"><ele>1472.3605</ele><time>2025-10-11T21:54:41.000Z</time></trkpt>
        <trkpt lat="29.575808" lon="103.36575"><ele>1470.4937</ele><time>2025-10-11T21:54:54.000Z</time></trkpt>
        <trkpt lat="29.575715" lon="103.365726"><ele>1467.5166</ele><time>2025-10-11T21:55:04.000Z</time></trkpt>
        <trkpt lat="29.575636" lon="103.365673"><ele>1465.4008</ele><time>2025-10-11T21:55:15.000Z</time></trkpt>
        <trkpt lat="29.57557" lon="103.365596"><ele>1466.1068</ele><time>2025-10-11T21:55:45.000Z</time></trkpt>
        <trkpt lat="29.575482" lon="103.365573"><ele>1468.4957</ele><time>2025-10-11T21:56:38.000Z</time></trkpt>
        <trkpt lat="29.575404" lon="103.365519"><ele>1470.3177</ele><time>2025-10-11T21:57:19.000Z</time></trkpt>
        <trkpt lat="29.575355" lon="103.365422"><ele>1472.8605</ele><time>2025-10-11T21:58:31.000Z</time></trkpt>
        <trkpt lat="29.57526" lon="103.365384"><ele>1475.177</ele><time>2025-10-11T21:58:55.000Z</time></trkpt>
        <trkpt lat="29.575216" lon="103.365283"><ele>1476.7438</ele><time>2025-10-11T21:59:10.000Z</time></trkpt>
        <trkpt lat="29.575139" lon="103.365226"><ele>1495.0281</ele><time>2025-10-11T22:00:32.000Z</time></trkpt>
        <trkpt lat="29.575082" lon="103.365138"><ele>1497.1471</ele><time>2025-10-11T22:00:46.000Z</time></trkpt>
        <trkpt lat="29.57499" lon="103.365092"><ele>1493.099</ele><time>2025-10-11T22:00:55.000Z</time></trkpt>
        <trkpt lat="29.574986" lon="103.364981"><ele>1495.033</ele><time>2025-10-11T22:01:07.000Z</time></trkpt>
        <trkpt lat="29.574999" lon="103.364876"><ele>1501.3562</ele><time>2025-10-11T22:01:29.000Z</time></trkpt>
        <trkpt lat="29.574925" lon="103.364816"><ele>1506.1498</ele><time>2025-10-11T22:02:05.000Z</time></trkpt>
        <trkpt lat="29.574878" lon="103.364725"><ele>1511.5541</ele><time>2025-10-11T22:03:26.000Z</time></trkpt>
        <trkpt lat="29.574835" lon="103.364633"><ele>1516.7424</ele><time>2025-10-11T22:04:06.000Z</time></trkpt>
        <trkpt lat="29.574767" lon="103.364565"><ele>1524.6016</ele><time>2025-10-11T22:04:39.000Z</time></trkpt>
        <trkpt lat="29.574716" lon="103.364471"><ele>1530.9508</ele><time>2025-10-11T22:05:22.000Z</time></trkpt>
        <trkpt lat="29.574732" lon="103.364369"><ele>1533.5725</ele><time>2025-10-11T22:05:58.000Z</time></trkpt>
        <trkpt lat="29.574652" lon="103.36432"><ele>1538.6941</ele><time>2025-10-11T22:06:12.000Z</time></trkpt>
        <trkpt lat="29.574574" lon="103.364261"><ele>1536.1101</ele><time>2025-10-11T22:06:26.000Z</time></trkpt>
        <trkpt lat="29.574498" lon="103.364195"><ele>1540.0815</ele><time>2025-10-11T22:06:46.000Z</time></trkpt>
        <trkpt lat="29.574474" lon="103.364094"><ele>1540.5009</ele><time>2025-10-11T22:06:55.000Z</time></trkpt>
        <trkpt lat="29.574482" lon="103.363991"><ele>1541.0432</ele><time>2025-10-11T22:07:10.000Z</time></trkpt>
        <trkpt lat="29.574435" lon="103.363895"><ele>1549.347</ele><time>2025-10-11T22:07:54.000Z</time></trkpt>
        <trkpt lat="29.574435" lon="103.363791"><ele>1552.3351</ele><time>2025-10-11T22:08:23.000Z</time></trkpt>
        <trkpt lat="29.574514" lon="103.363722"><ele>1559.6207</ele><time>2025-10-11T22:09:17.000Z</time></trkpt>
        <trkpt lat="29.574604" lon="103.363727"><ele>1566.1774</ele><time>2025-10-11T22:09:58.000Z</time></trkpt>
        <trkpt lat="29.574686" lon="103.363681"><ele>1564.5298</ele><time>2025-10-11T22:10:35.000Z</time></trkpt>
        <trkpt lat="29.574671" lon="103.363574"><ele>1565.0106</ele><time>2025-10-11T22:11:18.000Z</time></trkpt>
        <trkpt lat="29.574757" lon="103.36362"><ele>1569.646</ele><time>2025-10-11T22:13:08.000Z</time></trkpt>
        <trkpt lat="29.574675" lon="103.36357"><ele>1569.4304</ele><time>2025-10-11T22:15:42.000Z</time></trkpt>
        <trkpt lat="29.574662" lon="103.363465"><ele>1568.0194</ele><time>2025-10-11T22:16:04.000Z</time></trkpt>
        <trkpt lat="29.574651" lon="103.36336"><ele>1566.3082</ele><time>2025-10-11T22:16:14.000Z</time></trkpt>
        <trkpt lat="29.574646" lon="103.363248"><ele>1569.1351</ele><time>2025-10-11T22:16:38.000Z</time></trkpt>
        <trkpt lat="29.574654" lon="103.363142"><ele>1571.2972</ele><time>2025-10-11T22:17:07.000Z</time></trkpt>
        <trkpt lat="29.574598" lon="103.363045"><ele>1574.2839</ele><time>2025-10-11T22:17:16.000Z</time></trkpt>
        <trkpt lat="29.574634" lon="103.362927"><ele>1579.9084</ele><time>2025-10-11T22:18:00.000Z</time></trkpt>
        <trkpt lat="29.574713" lon="103.362851"><ele>1580.435</ele><time>2025-10-11T22:18:11.000Z</time></trkpt>
        <trkpt lat="29.574802" lon="103.362805"><ele>1581.4215</ele><time>2025-10-11T22:18:22.000Z</time></trkpt>
        <trkpt lat="29.574883" lon="103.362759"><ele>1595.4393</ele><time>2025-10-11T22:19:09.000Z</time></trkpt>
        <trkpt lat="29.57491" lon="103.362659"><ele>1598.9908</ele><time>2025-10-11T22:19:29.000Z</time></trkpt>
        <trkpt lat="29.574885" lon="103.362555"><ele>1597.4575</ele><time>2025-10-11T22:19:43.000Z</time></trkpt>
        <trkpt lat="29.574814" lon="103.362481"><ele>1599.1196</ele><time>2025-10-11T22:20:01.000Z</time></trkpt>
        <trkpt lat="29.574717" lon="103.362474"><ele>1600.482</ele><time>2025-10-11T22:20:18.000Z</time></trkpt>
        <trkpt lat="29.574627" lon="103.3625"><ele>1604.0753</ele><time>2025-10-11T22:20:28.000Z</time></trkpt>
        <trkpt lat="29.574533" lon="103.362523"><ele>1606.2125</ele><time>2025-10-11T22:20:38.000Z</time></trkpt>
        <trkpt lat="29.574432" lon="103.362546"><ele>1605.2896</ele><time>2025-10-11T22:20:46.000Z</time></trkpt>
        <trkpt lat="29.574335" lon="103.362549"><ele>1605.6423</ele><time>2025-10-11T22:20:56.000Z</time></trkpt>
        <trkpt lat="29.574246" lon="103.362562"><ele>1602.6072</ele><time>2025-10-11T22:21:07.000Z</time></trkpt>
        <trkpt lat="29.574158" lon="103.362594"><ele>1601.453</ele><time>2025-10-11T22:21:17.000Z</time></trkpt>
        <trkpt lat="29.574061" lon="103.36258"><ele>1603.1407</ele><time>2025-10-11T22:21:27.000Z</time></trkpt>
        <trkpt lat="29.57398" lon="103.362526"><ele>1601.8912</ele><time>2025-10-11T22:21:38.000Z</time></trkpt>
        <trkpt lat="29.57392" lon="103.36244"><ele>1601.2302</ele><time>2025-10-11T22:21:54.000Z</time></trkpt>
        <trkpt lat="29.573869" lon="103.362344"><ele>1607.547</ele><time>2025-10-11T22:22:06.000Z</time></trkpt>
        <trkpt lat="29.573773" lon="103.362354"><ele>1610.178</ele><time>2025-10-11T22:22:30.000Z</time></trkpt>
        <trkpt lat="29.573707" lon="103.362437"><ele>1611.9983</ele><time>2025-10-11T22:23:15.000Z</time></trkpt>
        <trkpt lat="29.573699" lon="103.362328"><ele>1613.4669</ele><time>2025-10-11T22:23:24.000Z</time></trkpt>
        <trkpt lat="29.573672" lon="103.362229"><ele>1610.5338</ele><time>2025-10-11T22:23:34.000Z</time></trkpt>
        <trkpt lat="29.573607" lon="103.362155"><ele>1614.4464</ele><time>2025-10-11T22:24:11.000Z</time></trkpt>
        <trkpt lat="29.573522" lon="103.362108"><ele>1623.0188</ele><time>2025-10-11T22:24:43.000Z</time></trkpt>
        <trkpt lat="29.57348" lon="103.362015"><ele>1629.4882</ele><time>2025-10-11T22:25:42.000Z</time></trkpt>
        <trkpt lat="29.57342" lon="103.361937"><ele>1633.1957</ele><time>2025-10-11T22:26:37.000Z</time></trkpt>
        <trkpt lat="29.573332" lon="103.361906"><ele>1630.5934</ele><time>2025-10-11T22:27:16.000Z</time></trkpt>
        <trkpt lat="29.573254" lon="103.361834"><ele>1636.3293</ele><time>2025-10-11T22:27:42.000Z</time></trkpt>
        <trkpt lat="29.573161" lon="103.361826"><ele>1639.2731</ele><time>2025-10-11T22:28:10.000Z</time></trkpt>
        <trkpt lat="29.573064" lon="103.361765"><ele>1642.1786</ele><time>2025-10-11T22:28:24.000Z</time></trkpt>
        <trkpt lat="29.572987" lon="103.361699"><ele>1646.8275</ele><time>2025-10-11T22:28:30.000Z</time></trkpt>
        <trkpt lat="29.572898" lon="103.36172"><ele>1648.2803</ele><time>2025-10-11T22:28:53.000Z</time></trkpt>
        <trkpt lat="29.572785" lon="103.361673"><ele>1646.6564</ele><time>2025-10-11T22:28:59.000Z</time></trkpt>
        <trkpt lat="29.572703" lon="103.361727"><ele>1644.5953</ele><time>2025-10-11T22:29:13.000Z</time></trkpt>
        <trkpt lat="29.57261" lon="103.361731"><ele>1642.6489</ele><time>2025-10-11T22:29:28.000Z</time></trkpt>
        <trkpt lat="29.572516" lon="103.361747"><ele>1654.4045</ele><time>2025-10-11T22:29:50.000Z</time></trkpt>
        <trkpt lat="29.572423" lon="103.361755"><ele>1663.7935</ele><time>2025-10-11T22:30:20.000Z</time></trkpt>
        <trkpt lat="29.572333" lon="103.361778"><ele>1664.8252</ele><time>2025-10-11T22:30:59.000Z</time></trkpt>
        <trkpt lat="29.572241" lon="103.361795"><ele>1670.1196</ele><time>2025-10-11T22:31:54.000Z</time></trkpt>
        <trkpt lat="29.572159" lon="103.361843"><ele>1673.7366</ele><time>2025-10-11T22:32:17.000Z</time></trkpt>
        <trkpt lat="29.572068" lon="103.361849"><ele>1672.0648</ele><time>2025-10-11T22:32:42.000Z</time></trkpt>
        <trkpt lat="29.571971" lon="103.361854"><ele>1680.9657</ele><time>2025-10-11T22:33:26.000Z</time></trkpt>
        <trkpt lat="29.571883" lon="103.361815"><ele>1685.7795</ele><time>2025-10-11T22:34:06.000Z</time></trkpt>
        <trkpt lat="29.5718" lon="103.361855"><ele>1693.1346</ele><time>2025-10-11T22:34:39.000Z</time></trkpt>
        <trkpt lat="29.571715" lon="103.361897"><ele>1695.7517</ele><time>2025-10-11T22:34:50.000Z</time></trkpt>
        <trkpt lat="29.571624" lon="103.361865"><ele>1700.0944</ele><time>2025-10-11T22:35:00.000Z</time></trkpt>
        <trkpt lat="29.571537" lon="103.361825"><ele>1701.5918</ele><time>2025-10-11T22:35:09.000Z</time></trkpt>
        <trkpt lat="29.571458" lon="103.36177"><ele>1701.2433</ele><time>2025-10-11T22:35:20.000Z</time></trkpt>
        <trkpt lat="29.571359" lon="103.361756"><ele>1701.7623</ele><time>2025-10-11T22:35:30.000Z</time></trkpt>
        <trkpt lat="29.57127" lon="103.361784"><ele>1701.5886</ele><time>2025-10-11T22:35:39.000Z</time></trkpt>
        <trkpt lat="29.571188" lon="103.361733"><ele>1696.2919</ele><time>2025-10-11T22:35:48.000Z</time></trkpt>
        <trkpt lat="29.571116" lon="103.361664"><ele>1695.9912</ele><time>2025-10-11T22:36:01.000Z</time></trkpt>
        <trkpt lat="29.571049" lon="103.361592"><ele>1694.2059</ele><time>2025-10-11T22:36:19.000Z</time></trkpt>
        <trkpt lat="29.570976" lon="103.361526"><ele>1691.5525</ele><time>2025-10-11T22:36:33.000Z</time></trkpt>
        <trkpt lat="29.570889" lon="103.361479"><ele>1692.1544</ele><time>2025-10-11T22:36:52.000Z</time></trkpt>
        <trkpt lat="29.570775" lon="103.361441"><ele>1695.6587</ele><time>2025-10-11T22:37:01.000Z</time></trkpt>
        <trkpt lat="29.57069" lon="103.361483"><ele>1701.1855</ele><time>2025-10-11T22:37:14.000Z</time></trkpt>
        <trkpt lat="29.570597" lon="103.36144"><ele>1703.6094</ele><time>2025-10-11T22:37:25.000Z</time></trkpt>
        <trkpt lat="29.570521" lon="103.36138"><ele>1703.5958</ele><time>2025-10-11T22:37:36.000Z</time></trkpt>
        <trkpt lat="29.570427" lon="103.36134"><ele>1705.382</ele><time>2025-10-11T22:37:46.000Z</time></trkpt>
        <trkpt lat="29.570339" lon="103.361297"><ele>1709.3999</ele><time>2025-10-11T22:37:54.000Z</time></trkpt>
        <trkpt lat="29.57024" lon="103.361267"><ele>1708.1155</ele><time>2025-10-11T22:38:03.000Z</time></trkpt>
        <trkpt lat="29.570141" lon="103.361247"><ele>1705.8417</ele><time>2025-10-11T22:38:13.000Z</time></trkpt>
        <trkpt lat="29.57004" lon="103.361222"><ele>1701.6305</ele><time>2025-10-11T22:38:27.000Z</time></trkpt>
        <trkpt lat="29.569974" lon="103.361137"><ele>1699.3569</ele><time>2025-10-11T22:38:50.000Z</time></trkpt>
        <trkpt lat="29.569907" lon="103.361068"><ele>1706.2883</ele><time>2025-10-11T22:39:07.000Z</time></trkpt>
        <trkpt lat="29.569812" lon="103.361063"><ele>1710.0374</ele><time>2025-10-11T22:39:22.000Z</time></trkpt>
        <trkpt lat="29.569756" lon="103.36098"><ele>1709.2262</ele><time>2025-10-11T22:39:36.000Z</time></trkpt>
        <trkpt lat="29.569674" lon="103.360925"><ele>1712.8735</ele><time>2025-10-11T22:39:48.000Z</time></trkpt>
        <trkpt lat="29.569608" lon="103.360848"><ele>1715.165</ele><time>2025-10-11T22:39:57.000Z</time></trkpt>
        <trkpt lat="29.569516" lon="103.36083"><ele>1715.9453</ele><time>2025-10-11T22:40:04.000Z</time></trkpt>
        <trkpt lat="29.569437" lon="103.360774"><ele>1715.2031</ele><time>2025-10-11T22:40:17.000Z</time></trkpt>
        <trkpt lat="29.569337" lon="103.360755"><ele>1716.5964</ele><time>2025-10-11T22:40:33.000Z</time></trkpt>
        <trkpt lat="29.569337" lon="103.360651"><ele>1715.1323</ele><time>2025-10-11T22:40:43.000Z</time></trkpt>
        <trkpt lat="29.569267" lon="103.360569"><ele>1716.5927</ele><time>2025-10-11T22:40:57.000Z</time></trkpt>
        <trkpt lat="29.569194" lon="103.360508"><ele>1719.9086</ele><time>2025-10-11T22:41:17.000Z</time></trkpt>
        <trkpt lat="29.569119" lon="103.36044"><ele>1721.4889</ele><time>2025-10-11T22:41:34.000Z</time></trkpt>
        <trkpt lat="29.569044" lon="103.360371"><ele>1723.9196</ele><time>2025-10-11T22:41:56.000Z</time></trkpt>
        <trkpt lat="29.568997" lon="103.360278"><ele>1718.9921</ele><time>2025-10-11T22:42:08.000Z</time></trkpt>
        <trkpt lat="29.56891" lon="103.36025"><ele>1722.8822</ele><time>2025-10-11T22:42:27.000Z</time></trkpt>
        <trkpt lat="29.568857" lon="103.360161"><ele>1733.303</ele><time>2025-10-11T22:43:43.000Z</time></trkpt>
        <trkpt lat="29.568806" lon="103.360068"><ele>1734.553</ele><time>2025-10-11T22:43:59.000Z</time></trkpt>
        <trkpt lat="29.568809" lon="103.359963"><ele>1732.2528</ele><time>2025-10-11T22:44:10.000Z</time></trkpt>
        <trkpt lat="29.568818" lon="103.359852"><ele>1731.5198</ele><time>2025-10-11T22:44:35.000Z</time></trkpt>
        <trkpt lat="29.568783" lon="103.359747"><ele>1730.1912</ele><time>2025-10-11T22:44:44.000Z</time></trkpt>
        <trkpt lat="29.568696" lon="103.359714"><ele>1732.4626</ele><time>2025-10-11T22:45:08.000Z</time></trkpt>
        <trkpt lat="29.568572" lon="103.359726"><ele>1740.471</ele><time>2025-10-11T22:46:06.000Z</time></trkpt>
        <trkpt lat="29.568482" lon="103.359758"><ele>1746.8458</ele><time>2025-10-11T22:46:25.000Z</time></trkpt>
        <trkpt lat="29.568392" lon="103.359769"><ele>1744.8378</ele><time>2025-10-11T22:46:51.000Z</time></trkpt>
        <trkpt lat="29.568301" lon="103.359746"><ele>1743.0045</ele><time>2025-10-11T22:47:12.000Z</time></trkpt>
        <trkpt lat="29.56824" lon="103.359669"><ele>1740.9666</ele><time>2025-10-11T22:47:22.000Z</time></trkpt>
        <trkpt lat="29.568165" lon="103.359606"><ele>1740.8298</ele><time>2025-10-11T22:47:41.000Z</time></trkpt>
        <trkpt lat="29.568092" lon="103.359686"><ele>1739.478</ele><time>2025-10-11T22:52:29.000Z</time></trkpt>
        <trkpt lat="29.568" lon="103.359658"><ele>1741.4457</ele><time>2025-10-11T22:52:41.000Z</time></trkpt>
        <trkpt lat="29.56791" lon="103.359639"><ele>1744.2976</ele><time>2025-10-11T22:52:50.000Z</time></trkpt>
        <trkpt lat="29.56781" lon="103.359598"><ele>1740.5214</ele><time>2025-10-11T22:53:06.000Z</time></trkpt>
        <trkpt lat="29.567734" lon="103.359529"><ele>1741.3702</ele><time>2025-10-11T22:53:32.000Z</time></trkpt>
        <trkpt lat="29.567638" lon="103.359515"><ele>1745.8857</ele><time>2025-10-11T22:53:57.000Z</time></trkpt>
        <trkpt lat="29.567583" lon="103.359428"><ele>1745.2803</ele><time>2025-10-11T22:54:36.000Z</time></trkpt>
        <trkpt lat="29.567502" lon="103.359476"><ele>1748.2261</ele><time>2025-10-11T22:54:52.000Z</time></trkpt>
        <trkpt lat="29.567412" lon="103.359514"><ele>1746.6022</ele><time>2025-10-11T22:55:31.000Z</time></trkpt>
        <trkpt lat="29.567318" lon="103.359515"><ele>1749.4899</ele><time>2025-10-11T22:56:08.000Z</time></trkpt>
        <trkpt lat="29.567228" lon="103.359477"><ele>1751.0765</ele><time>2025-10-11T22:56:24.000Z</time></trkpt>
        <trkpt lat="29.567134" lon="103.359461"><ele>1761.404</ele><time>2025-10-11T22:56:44.000Z</time></trkpt>
        <trkpt lat="29.567049" lon="103.359419"><ele>1767.7886</ele><time>2025-10-11T22:57:35.000Z</time></trkpt>
        <trkpt lat="29.566962" lon="103.359394"><ele>1765.9485</ele><time>2025-10-11T22:57:51.000Z</time></trkpt>
        <trkpt lat="29.56692" lon="103.359299"><ele>1767.1124</ele><time>2025-10-11T23:00:45.000Z</time></trkpt>
        <trkpt lat="29.566827" lon="103.359249"><ele>1765.9072</ele><time>2025-10-11T23:00:59.000Z</time></trkpt>
        <trkpt lat="29.566745" lon="103.359181"><ele>1766.7639</ele><time>2025-10-11T23:01:21.000Z</time></trkpt>
        <trkpt lat="29.566661" lon="103.359112"><ele>1768.6256</ele><time>2025-10-11T23:01:36.000Z</time></trkpt>
        <trkpt lat="29.566582" lon="103.359057"><ele>1770.7157</ele><time>2025-10-11T23:01:53.000Z</time></trkpt>
        <trkpt lat="29.56651" lon="103.358992"><ele>1767.2621</ele><time>2025-10-11T23:02:10.000Z</time></trkpt>
        <trkpt lat="29.566443" lon="103.358918"><ele>1776.1414</ele><time>2025-10-11T23:03:23.000Z</time></trkpt>
        <trkpt lat="29.566363" lon="103.358867"><ele>1777.6647</ele><time>2025-10-11T23:03:43.000Z</time></trkpt>
        <trkpt lat="29.566326" lon="103.358767"><ele>1780.3909</ele><time>2025-10-11T23:04:07.000Z</time></trkpt>
        <trkpt lat="29.566255" lon="103.35868"><ele>1786.3678</ele><time>2025-10-11T23:04:22.000Z</time></trkpt>
        <trkpt lat="29.566259" lon="103.358575"><ele>1784.8619</ele><time>2025-10-11T23:04:58.000Z</time></trkpt>
        <trkpt lat="29.566274" lon="103.358464"><ele>1791.7238</ele><time>2025-10-11T23:05:23.000Z</time></trkpt>
        <trkpt lat="29.566294" lon="103.358352"><ele>1793.2472</ele><time>2025-10-11T23:05:49.000Z</time></trkpt>
        <trkpt lat="29.566252" lon="103.358255"><ele>1802.9751</ele><time>2025-10-11T23:06:24.000Z</time></trkpt>
        <trkpt lat="29.566213" lon="103.358159"><ele>1801.3668</ele><time>2025-10-11T23:07:02.000Z</time></trkpt>
        <trkpt lat="29.56618" lon="103.358062"><ele>1807.1223</ele><time>2025-10-11T23:07:37.000Z</time></trkpt>
        <trkpt lat="29.566141" lon="103.357967"><ele>1807.3025</ele><time>2025-10-11T23:08:05.000Z</time></trkpt>
        <trkpt lat="29.566077" lon="103.35789"><ele>1811.2218</ele><time>2025-10-11T23:08:29.000Z</time></trkpt>
        <trkpt lat="29.566039" lon="103.357794"><ele>1808.637</ele><time>2025-10-11T23:08:48.000Z</time></trkpt>
        <trkpt lat="29.56612" lon="103.357844"><ele>1820.2825</ele><time>2025-10-11T23:10:35.000Z</time></trkpt>
        <trkpt lat="29.566077" lon="103.357752"><ele>1813.1425</ele><time>2025-10-11T23:11:44.000Z</time></trkpt>
        <trkpt lat="29.566063" lon="103.357857"><ele>1825.7831</ele><time>2025-10-11T23:15:08.000Z</time></trkpt>
        <trkpt lat="29.566053" lon="103.357738"><ele>1820.0834</ele><time>2025-10-11T23:16:05.000Z</time></trkpt>
        <trkpt lat="29.566031" lon="103.357637"><ele>1818.6755</ele><time>2025-10-11T23:16:30.000Z</time></trkpt>
        <trkpt lat="29.565954" lon="103.357572"><ele>1816.4856</ele><time>2025-10-11T23:16:47.000Z</time></trkpt>
        <trkpt lat="29.565876" lon="103.357513"><ele>1821.3093</ele><time>2025-10-11T23:17:32.000Z</time></trkpt>
        <trkpt lat="29.5658" lon="103.357453"><ele>1825.5068</ele><time>2025-10-11T23:17:54.000Z</time></trkpt>
        <trkpt lat="29.565729" lon="103.357385"><ele>1828.7986</ele><time>2025-10-11T23:18:06.000Z</time></trkpt>
        <trkpt lat="29.565656" lon="103.357321"><ele>1834.3916</ele><time>2025-10-11T23:18:20.000Z</time></trkpt>
        <trkpt lat="29.565619" lon="103.357201"><ele>1834.1868</ele><time>2025-10-11T23:18:36.000Z</time></trkpt>
        <trkpt lat="29.565549" lon="103.357124"><ele>1837.0978</ele><time>2025-10-11T23:19:07.000Z</time></trkpt>
        <trkpt lat="29.565509" lon="103.357027"><ele>1844.1284</ele><time>2025-10-11T23:20:08.000Z</time></trkpt>
        <trkpt lat="29.565472" lon="103.356931"><ele>1849.9777</ele><time>2025-10-11T23:20:57.000Z</time></trkpt>
        <trkpt lat="29.565417" lon="103.356847"><ele>1850.3896</ele><time>2025-10-11T23:21:44.000Z</time></trkpt>
        <trkpt lat="29.565324" lon="103.356825"><ele>1852.4587</ele><time>2025-10-11T23:22:20.000Z</time></trkpt>
        <trkpt lat="29.565241" lon="103.356774"><ele>1852.5157</ele><time>2025-10-11T23:22:44.000Z</time></trkpt>
        <trkpt lat="29.565181" lon="103.356696"><ele>1856.884</ele><time>2025-10-11T23:23:11.000Z</time></trkpt>
        <trkpt lat="29.565089" lon="103.356666"><ele>1854.4985</ele><time>2025-10-11T23:23:36.000Z</time></trkpt>
        <trkpt lat="29.564994" lon="103.356648"><ele>1856.2395</ele><time>2025-10-11T23:24:02.000Z</time></trkpt>
        <trkpt lat="29.564919" lon="103.356584"><ele>1857.2164</ele><time>2025-10-11T23:24:21.000Z</time></trkpt>
        <trkpt lat="29.564857" lon="103.356505"><ele>1860.2551</ele><time>2025-10-11T23:24:38.000Z</time></trkpt>
        <trkpt lat="29.564771" lon="103.356467"><ele>1860.634</ele><time>2025-10-11T23:24:54.000Z</time></trkpt>
        <trkpt lat="29.564763" lon="103.356582"><ele>1857.9504</ele><time>2025-10-11T23:25:05.000Z</time></trkpt>
        <trkpt lat="29.564781" lon="103.356464"><ele>1857.3987</ele><time>2025-10-11T23:25:18.000Z</time></trkpt>
        <trkpt lat="29.564745" lon="103.35636"><ele>1860.8938</ele><time>2025-10-11T23:25:44.000Z</time></trkpt>
        <trkpt lat="29.564693" lon="103.356272"><ele>1862.1512</ele><time>2025-10-11T23:25:53.000Z</time></trkpt>
        <trkpt lat="29.564657" lon="103.356175"><ele>1864.0322</ele><time>2025-10-11T23:26:10.000Z</time></trkpt>
        <trkpt lat="29.564593" lon="103.356095"><ele>1871.937</ele><time>2025-10-11T23:26:54.000Z</time></trkpt>
        <trkpt lat="29.564514" lon="103.356153"><ele>1873.1589</ele><time>2025-10-11T23:27:26.000Z</time></trkpt>
        <trkpt lat="29.564424" lon="103.356179"><ele>1887.3496</ele><time>2025-10-11T23:30:06.000Z</time></trkpt>
        <trkpt lat="29.564394" lon="103.356283"><ele>1890.2455</ele><time>2025-10-11T23:31:10.000Z</time></trkpt>
        <trkpt lat="29.564364" lon="103.356384"><ele>1891.82</ele><time>2025-10-11T23:32:18.000Z</time></trkpt>
        <trkpt lat="29.564297" lon="103.356459"><ele>1898.1035</ele><time>2025-10-11T23:32:58.000Z</time></trkpt>
        <trkpt lat="29.56421" lon="103.356491"><ele>1902.6306</ele><time>2025-10-11T23:33:58.000Z</time></trkpt>
        <trkpt lat="29.564117" lon="103.356521"><ele>1907.498</ele><time>2025-10-11T23:34:36.000Z</time></trkpt>
        <trkpt lat="29.564034" lon="103.356476"><ele>1906.7797</ele><time>2025-10-11T23:36:07.000Z</time></trkpt>
        <trkpt lat="29.564007" lon="103.356575"><ele>1900.7172</ele><time>2025-10-11T23:36:29.000Z</time></trkpt>
        <trkpt lat="29.564111" lon="103.356594"><ele>1903.3566</ele><time>2025-10-11T23:36:45.000Z</time></trkpt>
        <trkpt lat="29.564054" lon="103.356489"><ele>1904.6542</ele><time>2025-10-11T23:36:59.000Z</time></trkpt>
        <trkpt lat="29.56415" lon="103.356514"><ele>1914.189</ele><time>2025-10-11T23:37:28.000Z</time></trkpt>
        <trkpt lat="29.56404" lon="103.356541"><ele>1917.4647</ele><time>2025-10-11T23:37:42.000Z</time></trkpt>
        <trkpt lat="29.564062" lon="103.356609"><ele>1918.6772</ele><time>2025-10-11T23:38:21.000Z</time></trkpt>
        <trkpt lat="29.56402" lon="103.356471"><ele>1917.125</ele><time>2025-10-11T23:39:24.000Z</time></trkpt>
        <trkpt lat="29.563958" lon="103.356379"><ele>1916.6812</ele><time>2025-10-11T23:40:39.000Z</time></trkpt>
        <trkpt lat="29.564084" lon="103.356481"><ele>1916.6246</ele><time>2025-10-11T23:41:28.000Z</time></trkpt>
        <trkpt lat="29.564033" lon="103.356582"><ele>1920.6833</ele><time>2025-10-11T23:42:23.000Z</time></trkpt>
        <trkpt lat="29.563939" lon="103.356572"><ele>1917.098</ele><time>2025-10-11T23:42:36.000Z</time></trkpt>
        <trkpt lat="29.563847" lon="103.356585"><ele>1919.1824</ele><time>2025-10-11T23:42:50.000Z</time></trkpt>
        <trkpt lat="29.563896" lon="103.356677"><ele>1908.403</ele><time>2025-10-11T23:43:58.000Z</time></trkpt>
        <trkpt lat="29.563984" lon="103.356635"><ele>1908.1389</ele><time>2025-10-11T23:44:13.000Z</time></trkpt>
        <trkpt lat="29.563963" lon="103.356753"><ele>1907.5582</ele><time>2025-10-11T23:44:16.000Z</time></trkpt>
        <trkpt lat="29.563908" lon="103.356839"><ele>1912.5259</ele><time>2025-10-11T23:44:33.000Z</time></trkpt>
        <trkpt lat="29.563808" lon="103.356859"><ele>1907.4252</ele><time>2025-10-11T23:44:47.000Z</time></trkpt>
        <trkpt lat="29.563718" lon="103.35682"><ele>1905.2875</ele><time>2025-10-11T23:44:58.000Z</time></trkpt>
        <trkpt lat="29.563453" lon="103.356714"><ele>1904.521</ele><time>2025-10-11T23:45:33.000Z</time></trkpt>
        <trkpt lat="29.563333" lon="103.356693"><ele>1904.1116</ele><time>2025-10-11T23:45:44.000Z</time></trkpt>
        <trkpt lat="29.563164" lon="103.356795"><ele>1904.3223</ele><time>2025-10-11T23:45:55.000Z</time></trkpt>
        <trkpt lat="29.563869" lon="103.356836"><ele>1903.4325</ele><time>2025-10-11T23:46:33.000Z</time></trkpt>
        <trkpt lat="29.563942" lon="103.35677"><ele>1907.1089</ele><time>2025-10-11T23:46:50.000Z</time></trkpt>
        <trkpt lat="29.564002" lon="103.356662"><ele>1907.7468</ele><time>2025-10-11T23:47:01.000Z</time></trkpt>
        <trkpt lat="29.564037" lon="103.356562"><ele>1907.7786</ele><time>2025-10-11T23:47:14.000Z</time></trkpt>
        <trkpt lat="29.564027" lon="103.356457"><ele>1914.788</ele><time>2025-10-11T23:47:54.000Z</time></trkpt>
        <trkpt lat="29.564098" lon="103.356524"><ele>1911.7422</ele><time>2025-10-11T23:47:56.000Z</time></trkpt>
        <trkpt lat="29.564016" lon="103.356568"><ele>1904.4377</ele><time>2025-10-11T23:49:04.000Z</time></trkpt>
        <trkpt lat="29.563913" lon="103.35657"><ele>1904.2572</ele><time>2025-10-11T23:49:23.000Z</time></trkpt>
        <trkpt lat="29.563798" lon="103.35654"><ele>1903.2225</ele><time>2025-10-11T23:49:28.000Z</time></trkpt>
        <trkpt lat="29.563603" lon="103.356547"><ele>1904.0604</ele><time>2025-10-11T23:49:43.000Z</time></trkpt>
        <trkpt lat="29.563945" lon="103.356526"><ele>1905.8563</ele><time>2025-10-11T23:50:05.000Z</time></trkpt>
        <trkpt lat="29.563772" lon="103.35652"><ele>1906.4436</ele><time>2025-10-11T23:50:13.000Z</time></trkpt>
        <trkpt lat="29.563906" lon="103.356498"><ele>1904.9222</ele><time>2025-10-11T23:50:24.000Z</time></trkpt>
        <trkpt lat="29.564004" lon="103.356503"><ele>1905.1445</ele><time>2025-10-11T23:50:26.000Z</time></trkpt>
        <trkpt lat="29.564061" lon="103.356591"><ele>1907.5337</ele><time>2025-10-11T23:50:31.000Z</time></trkpt>
        <trkpt lat="29.564034" lon="103.356737"><ele>1911.252</ele><time>2025-10-11T23:50:52.000Z</time></trkpt>
        <trkpt lat="29.564184" lon="103.356603"><ele>1909.9109</ele><time>2025-10-11T23:52:13.000Z</time></trkpt>
        <trkpt lat="29.564188" lon="103.356468"><ele>1898.6029</ele><time>2025-10-11T23:54:18.000Z</time></trkpt>
        <trkpt lat="29.564167" lon="103.356368"><ele>1896.6227</ele><time>2025-10-11T23:54:33.000Z</time></trkpt>
        <trkpt lat="29.564141" lon="103.356257"><ele>1893.753</ele><time>2025-10-11T23:55:03.000Z</time></trkpt>
        <trkpt lat="29.564112" lon="103.356159"><ele>1890.8474</ele><time>2025-10-11T23:55:15.000Z</time></trkpt>
        <trkpt lat="29.564089" lon="103.356059"><ele>1890.0826</ele><time>2025-10-11T23:55:27.000Z</time></trkpt>
        <trkpt lat="29.564069" lon="103.355958"><ele>1887.8379</ele><time>2025-10-11T23:55:37.000Z</time></trkpt>
        <trkpt lat="29.564042" lon="103.355853"><ele>1883.6862</ele><time>2025-10-11T23:55:52.000Z</time></trkpt>
        <trkpt lat="29.56403" lon="103.355742"><ele>1878.8456</ele><time>2025-10-11T23:56:30.000Z</time></trkpt>
        <trkpt lat="29.564005" lon="103.35564"><ele>1879.163</ele><time>2025-10-11T23:56:40.000Z</time></trkpt>
        <trkpt lat="29.56399" lon="103.355529"><ele>1875.5739</ele><time>2025-10-11T23:56:54.000Z</time></trkpt>
        <trkpt lat="29.563972" lon="103.355411"><ele>1870.7141</ele><time>2025-10-11T23:57:11.000Z</time></trkpt>
        <trkpt lat="29.563946" lon="103.355301"><ele>1867.2468</ele><time>2025-10-11T23:57:22.000Z</time></trkpt>
        <trkpt lat="29.563889" lon="103.355207"><ele>1866.1309</ele><time>2025-10-11T23:57:34.000Z</time></trkpt>
        <trkpt lat="29.563822" lon="103.355112"><ele>1865.3503</ele><time>2025-10-11T23:57:43.000Z</time></trkpt>
        <trkpt lat="29.563767" lon="103.355028"><ele>1869.4127</ele><time>2025-10-11T23:57:53.000Z</time></trkpt>
        <trkpt lat="29.563705" lon="103.354945"><ele>1869.0267</ele><time>2025-10-11T23:58:04.000Z</time></trkpt>
        <trkpt lat="29.563643" lon="103.354865"><ele>1871.968</ele><time>2025-10-11T23:58:14.000Z</time></trkpt>
        <trkpt lat="29.563574" lon="103.354797"><ele>1870.4089</ele><time>2025-10-11T23:58:22.000Z</time></trkpt>
        <trkpt lat="29.563549" lon="103.354689"><ele>1869.3605</ele><time>2025-10-11T23:58:32.000Z</time></trkpt>
        <trkpt lat="29.563471" lon="103.354611"><ele>1870.7222</ele><time>2025-10-11T23:58:43.000Z</time></trkpt>
        <trkpt lat="29.563387" lon="103.35454"><ele>1873.9232</ele><time>2025-10-11T23:58:55.000Z</time></trkpt>
        <trkpt lat="29.563339" lon="103.354444"><ele>1874.221</ele><time>2025-10-11T23:59:06.000Z</time></trkpt>
        <trkpt lat="29.563312" lon="103.354325"><ele>1869.4844</ele><time>2025-10-11T23:59:17.000Z</time></trkpt>
        <trkpt lat="29.5633" lon="103.35422"><ele>1865.7214</ele><time>2025-10-11T23:59:28.000Z</time></trkpt>
        <trkpt lat="29.563267" lon="103.354114"><ele>1865.5387</ele><time>2025-10-11T23:59:38.000Z</time></trkpt>
        <trkpt lat="29.563212" lon="103.354012"><ele>1865.5164</ele><time>2025-10-11T23:59:45.000Z</time></trkpt>
        <trkpt lat="29.563196" lon="103.353895"><ele>1865.3389</ele><time>2025-10-11T23:59:54.000Z</time></trkpt>
        <trkpt lat="29.563181" lon="103.353782"><ele>1865.9791</ele><time>2025-10-12T00:00:03.000Z</time></trkpt>
        <trkpt lat="29.563138" lon="103.353684"><ele>1866.3313</ele><time>2025-10-12T00:00:13.000Z</time></trkpt>
        <trkpt lat="29.563127" lon="103.35358"><ele>1869.6171</ele><time>2025-10-12T00:00:22.000Z</time></trkpt>
        <trkpt lat="29.563154" lon="103.353478"><ele>1867.1407</ele><time>2025-10-12T00:00:49.000Z</time></trkpt>
        <trkpt lat="29.563128" lon="103.353376"><ele>1864.1787</ele><time>2025-10-12T00:01:05.000Z</time></trkpt>
        <trkpt lat="29.563105" lon="103.353267"><ele>1862.8601</ele><time>2025-10-12T00:01:17.000Z</time></trkpt>
        <trkpt lat="29.563079" lon="103.353158"><ele>1864.589</ele><time>2025-10-12T00:01:28.000Z</time></trkpt>
        <trkpt lat="29.563035" lon="103.353058"><ele>1861.2063</ele><time>2025-10-12T00:01:40.000Z</time></trkpt>
        <trkpt lat="29.562994" lon="103.352952"><ele>1858.6859</ele><time>2025-10-12T00:01:52.000Z</time></trkpt>
        <trkpt lat="29.562967" lon="103.352848"><ele>1858.6427</ele><time>2025-10-12T00:02:23.000Z</time></trkpt>
        <trkpt lat="29.562973" lon="103.352745"><ele>1853.7712</ele><time>2025-10-12T00:02:43.000Z</time></trkpt>
        <trkpt lat="29.563023" lon="103.352654"><ele>1851.9944</ele><time>2025-10-12T00:03:08.000Z</time></trkpt>
        <trkpt lat="29.563077" lon="103.352566"><ele>1845.7891</ele><time>2025-10-12T00:03:28.000Z</time></trkpt>
        <trkpt lat="29.563131" lon="103.352472"><ele>1844.1813</ele><time>2025-10-12T00:03:44.000Z</time></trkpt>
        <trkpt lat="29.563191" lon="103.352383"><ele>1843.8253</ele><time>2025-10-12T00:03:54.000Z</time></trkpt>
        <trkpt lat="29.563186" lon="103.352273"><ele>1841.5573</ele><time>2025-10-12T00:04:04.000Z</time></trkpt>
        <trkpt lat="29.563149" lon="103.352173"><ele>1845.3362</ele><time>2025-10-12T00:04:13.000Z</time></trkpt>
        <trkpt lat="29.563142" lon="103.352058"><ele>1842.1158</ele><time>2025-10-12T00:04:25.000Z</time></trkpt>
        <trkpt lat="29.563108" lon="103.351946"><ele>1845.7546</ele><time>2025-10-12T00:04:37.000Z</time></trkpt>
        <trkpt lat="29.563055" lon="103.35185"><ele>1844.351</ele><time>2025-10-12T00:04:47.000Z</time></trkpt>
        <trkpt lat="29.56306" lon="103.351743"><ele>1838.3173</ele><time>2025-10-12T00:05:02.000Z</time></trkpt>
        <trkpt lat="29.563053" lon="103.351638"><ele>1836.587</ele><time>2025-10-12T00:05:12.000Z</time></trkpt>
        <trkpt lat="29.56302" lon="103.351538"><ele>1833.2941</ele><time>2025-10-12T00:05:24.000Z</time></trkpt>
        <trkpt lat="29.563006" lon="103.351425"><ele>1833.3116</ele><time>2025-10-12T00:05:37.000Z</time></trkpt>
        <trkpt lat="29.563037" lon="103.351314"><ele>1831.2145</ele><time>2025-10-12T00:05:46.000Z</time></trkpt>
        <trkpt lat="29.563071" lon="103.351217"><ele>1836.0247</ele><time>2025-10-12T00:05:58.000Z</time></trkpt>
        <trkpt lat="29.56304" lon="103.351119"><ele>1828.3652</ele><time>2025-10-12T00:06:20.000Z</time></trkpt>
        <trkpt lat="29.563005" lon="103.351016"><ele>1824.9568</ele><time>2025-10-12T00:06:34.000Z</time></trkpt>
        <trkpt lat="29.562988" lon="103.350912"><ele>1825.0372</ele><time>2025-10-12T00:06:44.000Z</time></trkpt>
        <trkpt lat="29.562958" lon="103.350803"><ele>1825.2177</ele><time>2025-10-12T00:06:55.000Z</time></trkpt>
        <trkpt lat="29.562881" lon="103.350744"><ele>1829.1011</ele><time>2025-10-12T00:07:05.000Z</time></trkpt>
        <trkpt lat="29.562439" lon="103.354328"><ele>1992.789</ele><time>2025-10-12T00:11:44.000Z</time></trkpt>
        <trkpt lat="29.562479" lon="103.354028"><ele>1983.0951</ele><time>2025-10-12T00:11:45.000Z</time></trkpt>
        <trkpt lat="29.562534" lon="103.353672"><ele>1970.9633</ele><time>2025-10-12T00:11:46.000Z</time></trkpt>
        <trkpt lat="29.562667" lon="103.352874"><ele>1948.0098</ele><time>2025-10-12T00:11:47.000Z</time></trkpt>
        <trkpt lat="29.562668" lon="103.352412"><ele>1937.5966</ele><time>2025-10-12T00:11:48.000Z</time></trkpt>
        <trkpt lat="29.562838" lon="103.350988"><ele>1907.5437</ele><time>2025-10-12T00:11:53.000Z</time></trkpt>
        <trkpt lat="29.56287" lon="103.350887"><ele>1902.7391</ele><time>2025-10-12T00:11:54.000Z</time></trkpt>
        <trkpt lat="29.56284" lon="103.350987"><ele>1893.3806</ele><time>2025-10-12T00:11:57.000Z</time></trkpt>
        <trkpt lat="29.562839" lon="103.351103"><ele>1868.3402</ele><time>2025-10-12T00:12:05.000Z</time></trkpt>
        <trkpt lat="29.562898" lon="103.350931"><ele>1864.9319</ele><time>2025-10-12T00:12:19.000Z</time></trkpt>
        <trkpt lat="29.562888" lon="103.350894"><ele>1851.7462</ele><time>2025-10-12T00:12:23.000Z</time></trkpt>
        <trkpt lat="29.562881" lon="103.350777"><ele>1832.9683</ele><time>2025-10-12T00:12:45.000Z</time></trkpt>
        <trkpt lat="29.562854" lon="103.350674"><ele>1828.6377</ele><time>2025-10-12T00:33:06.000Z</time></trkpt>
        <trkpt lat="29.562816" lon="103.350579"><ele>1826.4734</ele><time>2025-10-12T00:33:14.000Z</time></trkpt>
        <trkpt lat="29.562832" lon="103.350466"><ele>1820.8654</ele><time>2025-10-12T00:33:26.000Z</time></trkpt>
        <trkpt lat="29.562842" lon="103.350356"><ele>1817.5728</ele><time>2025-10-12T00:33:37.000Z</time></trkpt>
        <trkpt lat="29.562856" lon="103.350245"><ele>1812.1735</ele><time>2025-10-12T00:33:53.000Z</time></trkpt>
        <trkpt lat="29.56288" lon="103.350139"><ele>1811.9777</ele><time>2025-10-12T00:34:01.000Z</time></trkpt>
        <trkpt lat="29.562907" lon="103.350034"><ele>1812.6086</ele><time>2025-10-12T00:34:09.000Z</time></trkpt>
        <trkpt lat="29.562919" lon="103.349928"><ele>1811.5215</ele><time>2025-10-12T00:34:19.000Z</time></trkpt>
        <trkpt lat="29.562935" lon="103.349824"><ele>1810.6454</ele><time>2025-10-12T00:34:27.000Z</time></trkpt>
        <trkpt lat="29.56297" lon="103.34972"><ele>1812.1456</ele><time>2025-10-12T00:34:36.000Z</time></trkpt>
        <trkpt lat="29.563014" lon="103.349625"><ele>1811.4095</ele><time>2025-10-12T00:34:45.000Z</time></trkpt>
        <trkpt lat="29.563068" lon="103.349533"><ele>1809.8009</ele><time>2025-10-12T00:34:57.000Z</time></trkpt>
        <trkpt lat="29.563128" lon="103.349447"><ele>1814.7495</ele><time>2025-10-12T00:35:05.000Z</time></trkpt>
        <trkpt lat="29.56311" lon="103.349346"><ele>1812.4299</ele><time>2025-10-12T00:35:15.000Z</time></trkpt>
        <trkpt lat="29.563129" lon="103.349238"><ele>1812.1519</ele><time>2025-10-12T00:35:23.000Z</time></trkpt>
        <trkpt lat="29.563156" lon="103.349138"><ele>1809.8206</ele><time>2025-10-12T00:35:34.000Z</time></trkpt>
        <trkpt lat="29.56316" lon="103.34903"><ele>1811.4829</ele><time>2025-10-12T00:35:46.000Z</time></trkpt>
        <trkpt lat="29.563186" lon="103.348925"><ele>1817.4254</ele><time>2025-10-12T00:35:56.000Z</time></trkpt>
        <trkpt lat="29.563174" lon="103.348818"><ele>1816.4647</ele><time>2025-10-12T00:36:11.000Z</time></trkpt>
        <trkpt lat="29.563173" lon="103.348703"><ele>1816.7172</ele><time>2025-10-12T00:36:22.000Z</time></trkpt>
        <trkpt lat="29.563172" lon="103.348596"><ele>1817.0532</ele><time>2025-10-12T00:36:33.000Z</time></trkpt>
        <trkpt lat="29.563196" lon="103.34849"><ele>1816.9711</ele><time>2025-10-12T00:36:42.000Z</time></trkpt>
        <trkpt lat="29.563225" lon="103.348388"><ele>1819.3713</ele><time>2025-10-12T00:36:52.000Z</time></trkpt>
        <trkpt lat="29.563266" lon="103.348289"><ele>1818.0524</ele><time>2025-10-12T00:37:02.000Z</time></trkpt>
        <trkpt lat="29.56333" lon="103.348215"><ele>1821.3125</ele><time>2025-10-12T00:37:17.000Z</time></trkpt>
        <trkpt lat="29.563358" lon="103.348114"><ele>1821.3087</ele><time>2025-10-12T00:37:25.000Z</time></trkpt>
        <trkpt lat="29.56342" lon="103.348026"><ele>1819.9512</ele><time>2025-10-12T00:37:34.000Z</time></trkpt>
        <trkpt lat="29.563492" lon="103.347948"><ele>1821.4321</ele><time>2025-10-12T00:37:43.000Z</time></trkpt>
        <trkpt lat="29.563507" lon="103.347841"><ele>1816.5664</ele><time>2025-10-12T00:37:55.000Z</time></trkpt>
        <trkpt lat="29.563496" lon="103.347728"><ele>1813.3561</ele><time>2025-10-12T00:38:12.000Z</time></trkpt>
        <trkpt lat="29.563501" lon="103.347615"><ele>1810.0188</ele><time>2025-10-12T00:38:24.000Z</time></trkpt>
        <trkpt lat="29.563496" lon="103.347502"><ele>1808.566</ele><time>2025-10-12T00:38:37.000Z</time></trkpt>
        <trkpt lat="29.563463" lon="103.347394"><ele>1805.7855</ele><time>2025-10-12T00:38:48.000Z</time></trkpt>
        <trkpt lat="29.563423" lon="103.347298"><ele>1806.7177</ele><time>2025-10-12T00:38:56.000Z</time></trkpt>
        <trkpt lat="29.563358" lon="103.347218"><ele>1811.938</ele><time>2025-10-12T00:39:08.000Z</time></trkpt>
        <trkpt lat="29.563277" lon="103.347167"><ele>1810.5017</ele><time>2025-10-12T00:39:17.000Z</time></trkpt>
        <trkpt lat="29.563252" lon="103.347268"><ele>1824.4614</ele><time>2025-10-12T00:48:02.000Z</time></trkpt>
        <trkpt lat="29.563241" lon="103.347163"><ele>1825.7948</ele><time>2025-10-12T00:48:10.000Z</time></trkpt>
        <trkpt lat="29.563169" lon="103.347081"><ele>1820.7717</ele><time>2025-10-12T00:48:21.000Z</time></trkpt>
        <trkpt lat="29.563106" lon="103.346998"><ele>1815.7375</ele><time>2025-10-12T00:48:32.000Z</time></trkpt>
        <trkpt lat="29.563041" lon="103.346905"><ele>1809.2378</ele><time>2025-10-12T00:48:44.000Z</time></trkpt>
        <trkpt lat="29.562989" lon="103.346821"><ele>1807.5044</ele><time>2025-10-12T00:49:12.000Z</time></trkpt>
        <trkpt lat="29.562913" lon="103.346763"><ele>1803.3866</ele><time>2025-10-12T00:49:22.000Z</time></trkpt>
        <trkpt lat="29.562869" lon="103.34667"><ele>1804.5609</ele><time>2025-10-12T00:49:30.000Z</time></trkpt>
        <trkpt lat="29.562811" lon="103.346583"><ele>1802.6864</ele><time>2025-10-12T00:49:41.000Z</time></trkpt>
        <trkpt lat="29.562728" lon="103.346502"><ele>1803.8917</ele><time>2025-10-12T00:49:49.000Z</time></trkpt>
        <trkpt lat="29.56264" lon="103.346459"><ele>1802.971</ele><time>2025-10-12T00:49:56.000Z</time></trkpt>
        <trkpt lat="29.56257" lon="103.346393"><ele>1798.0353</ele><time>2025-10-12T00:50:08.000Z</time></trkpt>
        <trkpt lat="29.562476" lon="103.346353"><ele>1794.4377</ele><time>2025-10-12T00:50:18.000Z</time></trkpt>
        <trkpt lat="29.56241" lon="103.346273"><ele>1795.3011</ele><time>2025-10-12T00:50:26.000Z</time></trkpt>
        <trkpt lat="29.562336" lon="103.346202"><ele>1795.3219</ele><time>2025-10-12T00:50:34.000Z</time></trkpt>
        <trkpt lat="29.562281" lon="103.346119"><ele>1795.6307</ele><time>2025-10-12T00:50:41.000Z</time></trkpt>
        <trkpt lat="29.562238" lon="103.346027"><ele>1796.8496</ele><time>2025-10-12T00:50:48.000Z</time></trkpt>
        <trkpt lat="29.562196" lon="103.345928"><ele>1795.4794</ele><time>2025-10-12T00:50:58.000Z</time></trkpt>
        <trkpt lat="29.562142" lon="103.345825"><ele>1796.4</ele><time>2025-10-12T00:51:08.000Z</time></trkpt>
        <trkpt lat="29.562077" lon="103.345748"><ele>1795.0336</ele><time>2025-10-12T00:51:17.000Z</time></trkpt>
        <trkpt lat="29.562038" lon="103.34565"><ele>1799.7369</ele><time>2025-10-12T00:51:28.000Z</time></trkpt>
        <trkpt lat="29.561949" lon="103.345623"><ele>1797.598</ele><time>2025-10-12T00:51:40.000Z</time></trkpt>
        <trkpt lat="29.561855" lon="103.345628"><ele>1798.1334</ele><time>2025-10-12T00:51:50.000Z</time></trkpt>
        <trkpt lat="29.561765" lon="103.345644"><ele>1799.8295</ele><time>2025-10-12T00:52:02.000Z</time></trkpt>
        <trkpt lat="29.561666" lon="103.345615"><ele>1801.7252</ele><time>2025-10-12T00:52:10.000Z</time></trkpt>
        <trkpt lat="29.561583" lon="103.345573"><ele>1801.8666</ele><time>2025-10-12T00:52:18.000Z</time></trkpt>
        <trkpt lat="29.561504" lon="103.345522"><ele>1802.1023</ele><time>2025-10-12T00:52:33.000Z</time></trkpt>
        <trkpt lat="29.561441" lon="103.345446"><ele>1803.1643</ele><time>2025-10-12T00:52:42.000Z</time></trkpt>
        <trkpt lat="29.56138" lon="103.345365"><ele>1803.4164</ele><time>2025-10-12T00:52:52.000Z</time></trkpt>
        <trkpt lat="29.561343" lon="103.34527"><ele>1805.4758</ele><time>2025-10-12T00:53:22.000Z</time></trkpt>
        <trkpt lat="29.561267" lon="103.345212"><ele>1806.8002</ele><time>2025-10-12T00:53:41.000Z</time></trkpt>
        <trkpt lat="29.561189" lon="103.345159"><ele>1813.4005</ele><time>2025-10-12T00:54:48.000Z</time></trkpt>
        <trkpt lat="29.561139" lon="103.345069"><ele>1817.2631</ele><time>2025-10-12T00:55:42.000Z</time></trkpt>
        <trkpt lat="29.561048" lon="103.345069"><ele>1823.4417</ele><time>2025-10-12T00:56:56.000Z</time></trkpt>
        <trkpt lat="29.560956" lon="103.345046"><ele>1835.587</ele><time>2025-10-12T00:58:13.000Z</time></trkpt>
        <trkpt lat="29.560878" lon="103.345098"><ele>1844.2201</ele><time>2025-10-12T00:58:49.000Z</time></trkpt>
        <trkpt lat="29.560812" lon="103.345024"><ele>1845.0017</ele><time>2025-10-12T00:59:28.000Z</time></trkpt>
        <trkpt lat="29.56079" lon="103.344919"><ele>1851.0505</ele><time>2025-10-12T00:59:56.000Z</time></trkpt>
        <trkpt lat="29.560705" lon="103.344982"><ele>1856.654</ele><time>2025-10-12T01:00:23.000Z</time></trkpt>
        <trkpt lat="29.560683" lon="103.344881"><ele>1865.8643</ele><time>2025-10-12T01:02:19.000Z</time></trkpt>
        <trkpt lat="29.560681" lon="103.344774"><ele>1866.3743</ele><time>2025-10-12T01:02:47.000Z</time></trkpt>
        <trkpt lat="29.560615" lon="103.344698"><ele>1872.8152</ele><time>2025-10-12T01:03:17.000Z</time></trkpt>
        <trkpt lat="29.560524" lon="103.344667"><ele>1880.1827</ele><time>2025-10-12T01:03:56.000Z</time></trkpt>
        <trkpt lat="29.560434" lon="103.344637"><ele>1886.0846</ele><time>2025-10-12T01:04:50.000Z</time></trkpt>
        <trkpt lat="29.560351" lon="103.344597"><ele>1889.7628</ele><time>2025-10-12T01:05:38.000Z</time></trkpt>
        <trkpt lat="29.560279" lon="103.344529"><ele>1894.0322</ele><time>2025-10-12T01:06:19.000Z</time></trkpt>
        <trkpt lat="29.560214" lon="103.344452"><ele>1896.3988</ele><time>2025-10-12T01:06:46.000Z</time></trkpt>
        <trkpt lat="29.560153" lon="103.344375"><ele>1905.2625</ele><time>2025-10-12T01:07:28.000Z</time></trkpt>
        <trkpt lat="29.56014" lon="103.344272"><ele>1910.9365</ele><time>2025-10-12T01:08:08.000Z</time></trkpt>
        <trkpt lat="29.56006" lon="103.344214"><ele>1917.0463</ele><time>2025-10-12T01:08:55.000Z</time></trkpt>
        <trkpt lat="29.560071" lon="103.34411"><ele>1927.0752</ele><time>2025-10-12T01:09:53.000Z</time></trkpt>
        <trkpt lat="29.560029" lon="103.344017"><ele>1930.5726</ele><time>2025-10-12T01:10:58.000Z</time></trkpt>
        <trkpt lat="29.5601" lon="103.34395"><ele>1933.2698</ele><time>2025-10-12T01:11:33.000Z</time></trkpt>
        <trkpt lat="29.560039" lon="103.343873"><ele>1941.4595</ele><time>2025-10-12T01:12:13.000Z</time></trkpt>
        <trkpt lat="29.559955" lon="103.343834"><ele>1948.0392</ele><time>2025-10-12T01:13:25.000Z</time></trkpt>
        <trkpt lat="29.55989" lon="103.34376"><ele>1951.2217</ele><time>2025-10-12T01:14:01.000Z</time></trkpt>
        <trkpt lat="29.559801" lon="103.343719"><ele>1959.8518</ele><time>2025-10-12T01:14:38.000Z</time></trkpt>
        <trkpt lat="29.559758" lon="103.343627"><ele>1965.5774</ele><time>2025-10-12T01:16:01.000Z</time></trkpt>
        <trkpt lat="29.559698" lon="103.343543"><ele>1969.5383</ele><time>2025-10-12T01:17:04.000Z</time></trkpt>
        <trkpt lat="29.559606" lon="103.343531"><ele>1973.5813</ele><time>2025-10-12T01:17:49.000Z</time></trkpt>
        <trkpt lat="29.559517" lon="103.343557"><ele>1981.8353</ele><time>2025-10-12T01:19:01.000Z</time></trkpt>
        <trkpt lat="29.559439" lon="103.343492"><ele>1986.1852</ele><time>2025-10-12T01:19:27.000Z</time></trkpt>
        <trkpt lat="29.559413" lon="103.343591"><ele>1989.4199</ele><time>2025-10-12T01:20:06.000Z</time></trkpt>
        <trkpt lat="29.559324" lon="103.34361"><ele>1998.1183</ele><time>2025-10-12T01:20:53.000Z</time></trkpt>
        <trkpt lat="29.559243" lon="103.343657"><ele>2004.4795</ele><time>2025-10-12T01:24:15.000Z</time></trkpt>
        <trkpt lat="29.559218" lon="103.343761"><ele>2007.4891</ele><time>2025-10-12T01:24:39.000Z</time></trkpt>
        <trkpt lat="29.559129" lon="103.343793"><ele>2012.4552</ele><time>2025-10-12T01:25:27.000Z</time></trkpt>
        <trkpt lat="29.559089" lon="103.343698"><ele>2016.5671</ele><time>2025-10-12T01:26:29.000Z</time></trkpt>
        <trkpt lat="29.558996" lon="103.343674"><ele>2020.385</ele><time>2025-10-12T01:28:46.000Z</time></trkpt>
        <trkpt lat="29.558917" lon="103.343731"><ele>2029.6686</ele><time>2025-10-12T01:29:30.000Z</time></trkpt>
        <trkpt lat="29.558859" lon="103.343824"><ele>2035.4924</ele><time>2025-10-12T01:29:58.000Z</time></trkpt>
        <trkpt lat="29.558859" lon="103.34394"><ele>2033.2399</ele><time>2025-10-12T01:30:11.000Z</time></trkpt>
        <trkpt lat="29.558973" lon="103.344016"><ele>2039.7985</ele><time>2025-10-12T01:30:44.000Z</time></trkpt>
        <trkpt lat="29.558915" lon="103.344107"><ele>2038.2778</ele><time>2025-10-12T01:31:11.000Z</time></trkpt>
        <trkpt lat="29.558832" lon="103.344149"><ele>2041.9412</ele><time>2025-10-12T01:32:10.000Z</time></trkpt>
        <trkpt lat="29.558825" lon="103.344255"><ele>2046.9155</ele><time>2025-10-12T01:32:45.000Z</time></trkpt>
        <trkpt lat="29.558735" lon="103.344225"><ele>2054.494</ele><time>2025-10-12T01:34:22.000Z</time></trkpt>
        <trkpt lat="29.558634" lon="103.344243"><ele>2056.6624</ele><time>2025-10-12T01:35:13.000Z</time></trkpt>
        <trkpt lat="29.558549" lon="103.344196"><ele>2060.5278</ele><time>2025-10-12T01:35:30.000Z</time></trkpt>
        <trkpt lat="29.558471" lon="103.344143"><ele>2063.1763</ele><time>2025-10-12T01:36:07.000Z</time></trkpt>
        <trkpt lat="29.55844" lon="103.344044"><ele>2064.6719</ele><time>2025-10-12T01:36:56.000Z</time></trkpt>
        <trkpt lat="29.558493" lon="103.343952"><ele>2063.3792</ele><time>2025-10-12T01:37:48.000Z</time></trkpt>
        <trkpt lat="29.558438" lon="103.344039"><ele>2069.219</ele><time>2025-10-12T01:43:23.000Z</time></trkpt>
        <trkpt lat="29.558375" lon="103.344116"><ele>2066.3438</ele><time>2025-10-12T01:43:47.000Z</time></trkpt>
        <trkpt lat="29.558281" lon="103.344129"><ele>2068.5857</ele><time>2025-10-12T01:44:09.000Z</time></trkpt>
        <trkpt lat="29.558202" lon="103.344034"><ele>2069.782</ele><time>2025-10-12T01:44:24.000Z</time></trkpt>
        <trkpt lat="29.558113" lon="103.344074"><ele>2066.327</ele><time>2025-10-12T01:44:46.000Z</time></trkpt>
        <trkpt lat="29.558123" lon="103.34397"><ele>2063.215</ele><time>2025-10-12T01:45:01.000Z</time></trkpt>
        <trkpt lat="29.557981" lon="103.343969"><ele>2061.5137</ele><time>2025-10-12T01:45:46.000Z</time></trkpt>
        <trkpt lat="29.557555" lon="103.343951"><ele>2072.329</ele><time>2025-10-12T01:46:39.000Z</time></trkpt>
        <trkpt lat="29.55752" lon="103.343847"><ele>2068.1538</ele><time>2025-10-12T01:46:57.000Z</time></trkpt>
        <trkpt lat="29.557465" lon="103.343762"><ele>2067.0437</ele><time>2025-10-12T01:47:09.000Z</time></trkpt>
        <trkpt lat="29.557377" lon="103.343707"><ele>2065.5115</ele><time>2025-10-12T01:47:21.000Z</time></trkpt>
        <trkpt lat="29.557291" lon="103.343671"><ele>2068.1436</ele><time>2025-10-12T01:47:52.000Z</time></trkpt>
        <trkpt lat="29.557353" lon="103.343595"><ele>2067.9224</ele><time>2025-10-12T01:49:21.000Z</time></trkpt>
        <trkpt lat="29.557283" lon="103.343663"><ele>2069.4963</ele><time>2025-10-12T01:50:22.000Z</time></trkpt>
        <trkpt lat="29.557195" lon="103.343632"><ele>2073.4126</ele><time>2025-10-12T01:51:05.000Z</time></trkpt>
        <trkpt lat="29.557115" lon="103.343577"><ele>2078.7712</ele><time>2025-10-12T01:51:46.000Z</time></trkpt>
        <trkpt lat="29.557037" lon="103.343631"><ele>2082.598</ele><time>2025-10-12T01:52:37.000Z</time></trkpt>
        <trkpt lat="29.556958" lon="103.343683"><ele>2087.5457</ele><time>2025-10-12T01:53:09.000Z</time></trkpt>
        <trkpt lat="29.556869" lon="103.34371"><ele>2091.3474</ele><time>2025-10-12T01:56:09.000Z</time></trkpt>
        <trkpt lat="29.556784" lon="103.343744"><ele>2094.3364</ele><time>2025-10-12T01:56:39.000Z</time></trkpt>
        <trkpt lat="29.556694" lon="103.343711"><ele>2098.7185</ele><time>2025-10-12T01:57:02.000Z</time></trkpt>
        <trkpt lat="29.556617" lon="103.343766"><ele>2101.0464</ele><time>2025-10-12T01:57:57.000Z</time></trkpt>
        <trkpt lat="29.556545" lon="103.343832"><ele>2104.5312</ele><time>2025-10-12T01:58:39.000Z</time></trkpt>
        <trkpt lat="29.556542" lon="103.343935"><ele>2111.9866</ele><time>2025-10-12T01:59:47.000Z</time></trkpt>
        <trkpt lat="29.556492" lon="103.344022"><ele>2117.9487</ele><time>2025-10-12T02:00:40.000Z</time></trkpt>
        <trkpt lat="29.556453" lon="103.344121"><ele>2122.9932</ele><time>2025-10-12T02:01:15.000Z</time></trkpt>
        <trkpt lat="29.556384" lon="103.344195"><ele>2126.5732</ele><time>2025-10-12T02:01:48.000Z</time></trkpt>
        <trkpt lat="29.556297" lon="103.344229"><ele>2131.1045</ele><time>2025-10-12T02:02:11.000Z</time></trkpt>
        <trkpt lat="29.556223" lon="103.344293"><ele>2132.7</ele><time>2025-10-12T02:02:39.000Z</time></trkpt>
        <trkpt lat="29.556169" lon="103.344377"><ele>2135.3274</ele><time>2025-10-12T02:03:37.000Z</time></trkpt>
        <trkpt lat="29.556099" lon="103.344451"><ele>2139.1555</ele><time>2025-10-12T02:04:03.000Z</time></trkpt>
        <trkpt lat="29.556023" lon="103.34451"><ele>2143.4397</ele><time>2025-10-12T02:05:05.000Z</time></trkpt>
        <trkpt lat="29.555936" lon="103.344651"><ele>2144.6372</ele><time>2025-10-12T02:07:53.000Z</time></trkpt>
        <trkpt lat="29.556013" lon="103.344565"><ele>2146.762</ele><time>2025-10-12T02:07:56.000Z</time></trkpt>
        <trkpt lat="29.556077" lon="103.344481"><ele>2147.1204</ele><time>2025-10-12T02:08:03.000Z</time></trkpt>
        <trkpt lat="29.556027" lon="103.344572"><ele>2145.6323</ele><time>2025-10-12T02:08:37.000Z</time></trkpt>
        <trkpt lat="29.555961" lon="103.344647"><ele>2149.3271</ele><time>2025-10-12T02:09:31.000Z</time></trkpt>
        <trkpt lat="29.555923" lon="103.344743"><ele>2148.762</ele><time>2025-10-12T02:10:05.000Z</time></trkpt>
        <trkpt lat="29.555781" lon="103.344788"><ele>2151.5872</ele><time>2025-10-12T02:10:51.000Z</time></trkpt>
        <trkpt lat="29.555841" lon="103.344866"><ele>2153.1006</ele><time>2025-10-12T02:11:12.000Z</time></trkpt>
        <trkpt lat="29.555807" lon="103.344966"><ele>2159.0664</ele><time>2025-10-12T02:11:30.000Z</time></trkpt>
        <trkpt lat="29.555717" lon="103.344981"><ele>2162.4841</ele><time>2025-10-12T02:11:56.000Z</time></trkpt>
        <trkpt lat="29.555627" lon="103.344951"><ele>2166.9937</ele><time>2025-10-12T02:12:44.000Z</time></trkpt>
        <trkpt lat="29.555526" lon="103.344952"><ele>2175.1724</ele><time>2025-10-12T02:13:58.000Z</time></trkpt>
        <trkpt lat="29.55547" lon="103.345034"><ele>2177.3042</ele><time>2025-10-12T02:14:47.000Z</time></trkpt>
        <trkpt lat="29.555417" lon="103.345118"><ele>2179.0085</ele><time>2025-10-12T02:15:25.000Z</time></trkpt>
        <trkpt lat="29.555326" lon="103.345122"><ele>2183.8125</ele><time>2025-10-12T02:16:02.000Z</time></trkpt>
        <trkpt lat="29.555266" lon="103.345031"><ele>2188.6584</ele><time>2025-10-12T02:16:25.000Z</time></trkpt>
        <trkpt lat="29.555176" lon="103.345012"><ele>2192.4158</ele><time>2025-10-12T02:17:08.000Z</time></trkpt>
        <trkpt lat="29.555112" lon="103.345086"><ele>2196.943</ele><time>2025-10-12T02:17:35.000Z</time></trkpt>
        <trkpt lat="29.555024" lon="103.345138"><ele>2196.4597</ele><time>2025-10-12T02:17:48.000Z</time></trkpt>
        <trkpt lat="29.554934" lon="103.34517"><ele>2196.22</ele><time>2025-10-12T02:18:07.000Z</time></trkpt>
        <trkpt lat="29.554837" lon="103.345154"><ele>2203.3904</ele><time>2025-10-12T02:18:48.000Z</time></trkpt>
        <trkpt lat="29.554766" lon="103.345226"><ele>2206.4507</ele><time>2025-10-12T02:19:10.000Z</time></trkpt>
        <trkpt lat="29.554705" lon="103.345305"><ele>2209.2222</ele><time>2025-10-12T02:19:43.000Z</time></trkpt>
        <trkpt lat="29.554627" lon="103.345356"><ele>2212.4116</ele><time>2025-10-12T02:21:00.000Z</time></trkpt>
        <trkpt lat="29.554537" lon="103.34538"><ele>2216.0635</ele><time>2025-10-12T02:21:39.000Z</time></trkpt>
        <trkpt lat="29.554449" lon="103.345349"><ele>2223.0964</ele><time>2025-10-12T02:22:32.000Z</time></trkpt>
        <trkpt lat="29.554366" lon="103.345397"><ele>2224.368</ele><time>2025-10-12T02:23:24.000Z</time></trkpt>
        <trkpt lat="29.554277" lon="103.345427"><ele>2230.6562</ele><time>2025-10-12T02:24:16.000Z</time></trkpt>
        <trkpt lat="29.554183" lon="103.345398"><ele>2235.8777</ele><time>2025-10-12T02:24:48.000Z</time></trkpt>
        <trkpt lat="29.55412" lon="103.345499"><ele>2233.222</ele><time>2025-10-12T02:25:45.000Z</time></trkpt>
        <trkpt lat="29.554013" lon="103.345502"><ele>2235.9717</ele><time>2025-10-12T02:26:09.000Z</time></trkpt>
        <trkpt lat="29.55394" lon="103.34544"><ele>2250.782</ele><time>2025-10-12T02:26:46.000Z</time></trkpt>
        <trkpt lat="29.553855" lon="103.34539"><ele>2247.952</ele><time>2025-10-12T02:27:05.000Z</time></trkpt>
        <trkpt lat="29.553757" lon="103.345377"><ele>2247.9775</ele><time>2025-10-12T02:27:44.000Z</time></trkpt>
        <trkpt lat="29.553676" lon="103.345323"><ele>2248.7485</ele><time>2025-10-12T02:28:39.000Z</time></trkpt>
        <trkpt lat="29.553584" lon="103.345321"><ele>2253.851</ele><time>2025-10-12T02:29:05.000Z</time></trkpt>
        <trkpt lat="29.553489" lon="103.345336"><ele>2258.109</ele><time>2025-10-12T02:29:23.000Z</time></trkpt>
        <trkpt lat="29.553397" lon="103.345346"><ele>2261.2473</ele><time>2025-10-12T02:29:35.000Z</time></trkpt>
        <trkpt lat="29.553305" lon="103.345365"><ele>2262.629</ele><time>2025-10-12T02:30:05.000Z</time></trkpt>
        <trkpt lat="29.553209" lon="103.345357"><ele>2264.594</ele><time>2025-10-12T02:30:19.000Z</time></trkpt>
        <trkpt lat="29.553126" lon="103.345397"><ele>2265.5305</ele><time>2025-10-12T02:30:31.000Z</time></trkpt>
        <trkpt lat="29.553028" lon="103.345403"><ele>2266.9824</ele><time>2025-10-12T02:30:41.000Z</time></trkpt>
        <trkpt lat="29.552936" lon="103.345438"><ele>2263.1873</ele><time>2025-10-12T02:30:56.000Z</time></trkpt>
        <trkpt lat="29.552837" lon="103.34546"><ele>2264.224</ele><time>2025-10-12T02:31:06.000Z</time></trkpt>
        <trkpt lat="29.552747" lon="103.345465"><ele>2264.0884</ele><time>2025-10-12T02:31:17.000Z</time></trkpt>
        <trkpt lat="29.552649" lon="103.345445"><ele>2263.9658</ele><time>2025-10-12T02:31:27.000Z</time></trkpt>
        <trkpt lat="29.552555" lon="103.345453"><ele>2265.6538</ele><time>2025-10-12T02:31:37.000Z</time></trkpt>
        <trkpt lat="29.552463" lon="103.34548"><ele>2258.8132</ele><time>2025-10-12T02:31:54.000Z</time></trkpt>
        <trkpt lat="29.552385" lon="103.345418"><ele>2256.8083</ele><time>2025-10-12T02:32:06.000Z</time></trkpt>
        <trkpt lat="29.552396" lon="103.34531"><ele>2260.4937</ele><time>2025-10-12T02:32:14.000Z</time></trkpt>
        <trkpt lat="29.552353" lon="103.345214"><ele>2263.8499</ele><time>2025-10-12T02:32:30.000Z</time></trkpt>
        <trkpt lat="29.552262" lon="103.345187"><ele>2270.0215</ele><time>2025-10-12T02:32:38.000Z</time></trkpt>
        <trkpt lat="29.552177" lon="103.345142"><ele>2269.286</ele><time>2025-10-12T02:32:48.000Z</time></trkpt>
        <trkpt lat="29.552087" lon="103.345147"><ele>2266.9272</ele><time>2025-10-12T02:32:56.000Z</time></trkpt>
        <trkpt lat="29.552007" lon="103.345092"><ele>2263.8594</ele><time>2025-10-12T02:33:06.000Z</time></trkpt>
        <trkpt lat="29.551971" lon="103.344994"><ele>2264.0103</ele><time>2025-10-12T02:33:15.000Z</time></trkpt>
        <trkpt lat="29.551986" lon="103.344882"><ele>2265.009</ele><time>2025-10-12T02:33:26.000Z</time></trkpt>
        <trkpt lat="29.55191" lon="103.344825"><ele>2260.7126</ele><time>2025-10-12T02:33:34.000Z</time></trkpt>
        <trkpt lat="29.551843" lon="103.344741"><ele>2257.0427</ele><time>2025-10-12T02:33:44.000Z</time></trkpt>
        <trkpt lat="29.55178" lon="103.344653"><ele>2255.3623</ele><time>2025-10-12T02:33:55.000Z</time></trkpt>
        <trkpt lat="29.551713" lon="103.344562"><ele>2257.0637</ele><time>2025-10-12T02:34:05.000Z</time></trkpt>
        <trkpt lat="29.551668" lon="103.344469"><ele>2260.2966</ele><time>2025-10-12T02:34:15.000Z</time></trkpt>
        <trkpt lat="29.5516" lon="103.344392"><ele>2260.3198</ele><time>2025-10-12T02:34:26.000Z</time></trkpt>
        <trkpt lat="29.551534" lon="103.344312"><ele>2259.1794</ele><time>2025-10-12T02:34:38.000Z</time></trkpt>
        <trkpt lat="29.551449" lon="103.344262"><ele>2255.6978</ele><time>2025-10-12T02:34:50.000Z</time></trkpt>
        <trkpt lat="29.551352" lon="103.344234"><ele>2252.5652</ele><time>2025-10-12T02:35:02.000Z</time></trkpt>
        <trkpt lat="29.551253" lon="103.344211"><ele>2250.4524</ele><time>2025-10-12T02:35:14.000Z</time></trkpt>
        <trkpt lat="29.551156" lon="103.344209"><ele>2251.8381</ele><time>2025-10-12T02:35:23.000Z</time></trkpt>
        <trkpt lat="29.551062" lon="103.344222"><ele>2250.2834</ele><time>2025-10-12T02:35:33.000Z</time></trkpt>
        <trkpt lat="29.55099" lon="103.344158"><ele>2250.3523</ele><time>2025-10-12T02:35:43.000Z</time></trkpt>
        <trkpt lat="29.550899" lon="103.344147"><ele>2248.0818</ele><time>2025-10-12T02:35:50.000Z</time></trkpt>
        <trkpt lat="29.550798" lon="103.344135"><ele>2247.0884</ele><time>2025-10-12T02:36:00.000Z</time></trkpt>
        <trkpt lat="29.550712" lon="103.344083"><ele>2246.4304</ele><time>2025-10-12T02:36:11.000Z</time></trkpt>
        <trkpt lat="29.550673" lon="103.34399"><ele>2245.5952</ele><time>2025-10-12T02:36:21.000Z</time></trkpt>
        <trkpt lat="29.55059" lon="103.343944"><ele>2250.685</ele><time>2025-10-12T02:36:42.000Z</time></trkpt>
        <trkpt lat="29.550522" lon="103.34387"><ele>2254.7166</ele><time>2025-10-12T02:36:53.000Z</time></trkpt>
        <trkpt lat="29.550453" lon="103.343786"><ele>2256.8218</ele><time>2025-10-12T02:37:01.000Z</time></trkpt>
        <trkpt lat="29.550393" lon="103.343705"><ele>2260.3079</ele><time>2025-10-12T02:37:11.000Z</time></trkpt>
        <trkpt lat="29.550316" lon="103.343641"><ele>2260.29</ele><time>2025-10-12T02:37:21.000Z</time></trkpt>
        <trkpt lat="29.550239" lon="103.343579"><ele>2258.968</ele><time>2025-10-12T02:37:30.000Z</time></trkpt>
        <trkpt lat="29.550215" lon="103.343479"><ele>2259.422</ele><time>2025-10-12T02:37:39.000Z</time></trkpt>
        <trkpt lat="29.550171" lon="103.343379"><ele>2256.781</ele><time>2025-10-12T02:37:49.000Z</time></trkpt>
        <trkpt lat="29.550123" lon="103.343285"><ele>2259.231</ele><time>2025-10-12T02:38:01.000Z</time></trkpt>
        <trkpt lat="29.550051" lon="103.343211"><ele>2257.9404</ele><time>2025-10-12T02:38:11.000Z</time></trkpt>
        <trkpt lat="29.549984" lon="103.343139"><ele>2260.4397</ele><time>2025-10-12T02:38:30.000Z</time></trkpt>
        <trkpt lat="29.549931" lon="103.343048"><ele>2261.9133</ele><time>2025-10-12T02:38:42.000Z</time></trkpt>
        <trkpt lat="29.549896" lon="103.342946"><ele>2266.41</ele><time>2025-10-12T02:38:52.000Z</time></trkpt>
        <trkpt lat="29.549826" lon="103.342869"><ele>2263.979</ele><time>2025-10-12T02:39:03.000Z</time></trkpt>
        <trkpt lat="29.549783" lon="103.342777"><ele>2264.4724</ele><time>2025-10-12T02:39:14.000Z</time></trkpt>
        <trkpt lat="29.549738" lon="103.342672"><ele>2265.6448</ele><time>2025-10-12T02:39:24.000Z</time></trkpt>
        <trkpt lat="29.54967" lon="103.342599"><ele>2262.792</ele><time>2025-10-12T02:39:35.000Z</time></trkpt>
        <trkpt lat="29.549606" lon="103.342518"><ele>2261.9407</ele><time>2025-10-12T02:39:46.000Z</time></trkpt>
        <trkpt lat="29.549546" lon="103.342435"><ele>2262.85</ele><time>2025-10-12T02:39:53.000Z</time></trkpt>
        <trkpt lat="29.549478" lon="103.342361"><ele>2264.5793</ele><time>2025-10-12T02:40:03.000Z</time></trkpt>
        <trkpt lat="29.549399" lon="103.34228"><ele>2262.946</ele><time>2025-10-12T02:40:12.000Z</time></trkpt>
        <trkpt lat="29.549335" lon="103.342186"><ele>2262.8723</ele><time>2025-10-12T02:40:25.000Z</time></trkpt>
        <trkpt lat="29.54931" lon="103.342085"><ele>2262.7751</ele><time>2025-10-12T02:40:40.000Z</time></trkpt>
        <trkpt lat="29.549296" lon="103.341975"><ele>2263.4878</ele><time>2025-10-12T02:40:51.000Z</time></trkpt>
        <trkpt lat="29.549299" lon="103.34187"><ele>2267.3892</ele><time>2025-10-12T02:41:23.000Z</time></trkpt>
        <trkpt lat="29.549245" lon="103.341782"><ele>2268.5051</ele><time>2025-10-12T02:42:42.000Z</time></trkpt>
        <trkpt lat="29.549214" lon="103.341674"><ele>2267.772</ele><time>2025-10-12T02:42:53.000Z</time></trkpt>
        <trkpt lat="29.5492" lon="103.341554"><ele>2268.3704</ele><time>2025-10-12T02:43:02.000Z</time></trkpt>
        <trkpt lat="29.54917" lon="103.341446"><ele>2267.4404</ele><time>2025-10-12T02:43:12.000Z</time></trkpt>
        <trkpt lat="29.54911" lon="103.34136"><ele>2272.5037</ele><time>2025-10-12T02:43:38.000Z</time></trkpt>
        <trkpt lat="29.54905" lon="103.34128"><ele>2278.2673</ele><time>2025-10-12T02:44:00.000Z</time></trkpt>
        <trkpt lat="29.548995" lon="103.341196"><ele>2279.044</ele><time>2025-10-12T02:44:21.000Z</time></trkpt>
        <trkpt lat="29.548897" lon="103.341187"><ele>2278.0288</ele><time>2025-10-12T02:44:35.000Z</time></trkpt>
        <trkpt lat="29.548803" lon="103.341163"><ele>2279.9558</ele><time>2025-10-12T02:44:59.000Z</time></trkpt>
        <trkpt lat="29.548709" lon="103.341173"><ele>2284.9182</ele><time>2025-10-12T02:45:33.000Z</time></trkpt>
        <trkpt lat="29.54862" lon="103.341196"><ele>2289.1858</ele><time>2025-10-12T02:45:55.000Z</time></trkpt>
        <trkpt lat="29.548527" lon="103.341228"><ele>2295.1965</ele><time>2025-10-12T02:46:19.000Z</time></trkpt>
        <trkpt lat="29.548435" lon="103.341238"><ele>2300.5488</ele><time>2025-10-12T02:46:53.000Z</time></trkpt>
        <trkpt lat="29.548347" lon="103.341266"><ele>2300.8982</ele><time>2025-10-12T02:47:33.000Z</time></trkpt>
        <trkpt lat="29.548259" lon="103.341232"><ele>2305.3806</ele><time>2025-10-12T02:48:10.000Z</time></trkpt>
        <trkpt lat="29.548169" lon="103.341202"><ele>2312.1099</ele><time>2025-10-12T02:48:35.000Z</time></trkpt>
        <trkpt lat="29.548074" lon="103.34122"><ele>2316.7107</ele><time>2025-10-12T02:48:56.000Z</time></trkpt>
        <trkpt lat="29.547981" lon="103.341207"><ele>2319.5493</ele><time>2025-10-12T02:49:30.000Z</time></trkpt>
        <trkpt lat="29.547886" lon="103.341194"><ele>2315.5674</ele><time>2025-10-12T02:49:51.000Z</time></trkpt>
        <trkpt lat="29.547811" lon="103.341135"><ele>2317.0845</ele><time>2025-10-12T02:50:09.000Z</time></trkpt>
        <trkpt lat="29.54772" lon="103.341096"><ele>2313.6711</ele><time>2025-10-12T02:50:19.000Z</time></trkpt>
        <trkpt lat="29.547625" lon="103.341084"><ele>2314.4736</ele><time>2025-10-12T02:50:30.000Z</time></trkpt>
        <trkpt lat="29.547531" lon="103.341092"><ele>2321.8042</ele><time>2025-10-12T02:50:45.000Z</time></trkpt>
        <trkpt lat="29.54745" lon="103.341035"><ele>2331.3032</ele><time>2025-10-12T02:51:10.000Z</time></trkpt>
        <trkpt lat="29.547367" lon="103.34099"><ele>2332.262</ele><time>2025-10-12T02:52:23.000Z</time></trkpt>
        <trkpt lat="29.547273" lon="103.340966"><ele>2332.345</ele><time>2025-10-12T02:52:31.000Z</time></trkpt>
        <trkpt lat="29.547257" lon="103.340853"><ele>2331.3916</ele><time>2025-10-12T02:52:46.000Z</time></trkpt>
        <trkpt lat="29.547157" lon="103.340811"><ele>2327.0557</ele><time>2025-10-12T02:52:58.000Z</time></trkpt>
        <trkpt lat="29.54717" lon="103.340708"><ele>2328.9612</ele><time>2025-10-12T02:53:14.000Z</time></trkpt>
        <trkpt lat="29.54711" lon="103.340625"><ele>2335.447</ele><time>2025-10-12T02:54:17.000Z</time></trkpt>
        <trkpt lat="29.54707" lon="103.340522"><ele>2337.223</ele><time>2025-10-12T02:54:46.000Z</time></trkpt>
        <trkpt lat="29.547094" lon="103.340418"><ele>2339.8562</ele><time>2025-10-12T02:54:57.000Z</time></trkpt>
        <trkpt lat="29.54702" lon="103.340357"><ele>2339.17</ele><time>2025-10-12T02:55:00.000Z</time></trkpt>
        <trkpt lat="29.547113" lon="103.340291"><ele>2339.6929</ele><time>2025-10-12T02:55:09.000Z</time></trkpt>
        <trkpt lat="29.547171" lon="103.340202"><ele>2342.818</ele><time>2025-10-12T02:55:17.000Z</time></trkpt>
        <trkpt lat="29.547244" lon="103.34011"><ele>2345.357</ele><time>2025-10-12T02:55:23.000Z</time></trkpt>
        <trkpt lat="29.547379" lon="103.340087"><ele>2346.6038</ele><time>2025-10-12T02:55:30.000Z</time></trkpt>
        <trkpt lat="29.547328" lon="103.340183"><ele>2347.3103</ele><time>2025-10-12T02:55:32.000Z</time></trkpt>
        <trkpt lat="29.54725" lon="103.340297"><ele>2348.0942</ele><time>2025-10-12T02:55:34.000Z</time></trkpt>
        <trkpt lat="29.547207" lon="103.340201"><ele>2348.078</ele><time>2025-10-12T02:55:45.000Z</time></trkpt>
        <trkpt lat="29.547201" lon="103.340064"><ele>2350.9556</ele><time>2025-10-12T02:55:50.000Z</time></trkpt>
        <trkpt lat="29.547117" lon="103.340126"><ele>2354.0686</ele><time>2025-10-12T02:56:17.000Z</time></trkpt>
        <trkpt lat="29.547055" lon="103.340202"><ele>2348.7861</ele><time>2025-10-12T02:56:40.000Z</time></trkpt>
        <trkpt lat="29.546957" lon="103.340202"><ele>2362.1519</ele><time>2025-10-12T02:57:18.000Z</time></trkpt>
        <trkpt lat="29.546852" lon="103.340292"><ele>2363.0327</ele><time>2025-10-12T02:57:23.000Z</time></trkpt>
        <trkpt lat="29.546938" lon="103.340341"><ele>2362.1936</ele><time>2025-10-12T02:57:26.000Z</time></trkpt>
        <trkpt lat="29.547026" lon="103.340449"><ele>2361.6628</ele><time>2025-10-12T02:57:30.000Z</time></trkpt>
        <trkpt lat="29.547029" lon="103.340558"><ele>2360.2454</ele><time>2025-10-12T02:57:38.000Z</time></trkpt>
        <trkpt lat="29.54705" lon="103.340437"><ele>2360.588</ele><time>2025-10-12T02:57:43.000Z</time></trkpt>
        <trkpt lat="29.547101" lon="103.340284"><ele>2364.3716</ele><time>2025-10-12T02:57:47.000Z</time></trkpt>
        <trkpt lat="29.547104" lon="103.340166"><ele>2367.1826</ele><time>2025-10-12T02:57:50.000Z</time></trkpt>
        <trkpt lat="29.547089" lon="103.34006"><ele>2366.4912</ele><time>2025-10-12T02:58:26.000Z</time></trkpt>
        <trkpt lat="29.547061" lon="103.339959"><ele>2369.9749</ele><time>2025-10-12T02:59:04.000Z</time></trkpt>
        <trkpt lat="29.547042" lon="103.339855"><ele>2369.5125</ele><time>2025-10-12T02:59:36.000Z</time></trkpt>
        <trkpt lat="29.547019" lon="103.339752"><ele>2375.0288</ele><time>2025-10-12T03:00:30.000Z</time></trkpt>
        <trkpt lat="29.546986" lon="103.339655"><ele>2381.4912</ele><time>2025-10-12T03:01:04.000Z</time></trkpt>
        <trkpt lat="29.546912" lon="103.33959"><ele>2385.4004</ele><time>2025-10-12T03:01:59.000Z</time></trkpt>
        <trkpt lat="29.546844" lon="103.339518"><ele>2388.227</ele><time>2025-10-12T03:02:44.000Z</time></trkpt>
        <trkpt lat="29.546834" lon="103.339415"><ele>2394.7446</ele><time>2025-10-12T03:03:35.000Z</time></trkpt>
        <trkpt lat="29.546765" lon="103.339345"><ele>2396.932</ele><time>2025-10-12T03:04:32.000Z</time></trkpt>
        <trkpt lat="29.546702" lon="103.339269"><ele>2393.538</ele><time>2025-10-12T03:08:47.000Z</time></trkpt>
        <trkpt lat="29.546637" lon="103.339195"><ele>2403.0713</ele><time>2025-10-12T03:09:32.000Z</time></trkpt>
        <trkpt lat="29.546595" lon="103.339103"><ele>2407.3262</ele><time>2025-10-12T03:09:55.000Z</time></trkpt>
        <trkpt lat="29.546541" lon="103.339018"><ele>2410.981</ele><time>2025-10-12T03:10:30.000Z</time></trkpt>
        <trkpt lat="29.546472" lon="103.338946"><ele>2413.116</ele><time>2025-10-12T03:11:02.000Z</time></trkpt>
        <trkpt lat="29.546412" lon="103.338867"><ele>2414.6174</ele><time>2025-10-12T03:11:53.000Z</time></trkpt>
        <trkpt lat="29.546339" lon="103.338804"><ele>2416.9197</ele><time>2025-10-12T03:12:26.000Z</time></trkpt>
        <trkpt lat="29.546261" lon="103.338749"><ele>2425.9502</ele><time>2025-10-12T03:13:21.000Z</time></trkpt>
        <trkpt lat="29.546225" lon="103.338652"><ele>2428.2202</ele><time>2025-10-12T03:14:02.000Z</time></trkpt>
        <trkpt lat="29.54618" lon="103.33856"><ele>2431.2734</ele><time>2025-10-12T03:14:26.000Z</time></trkpt>
        <trkpt lat="29.546142" lon="103.338461"><ele>2433.1357</ele><time>2025-10-12T03:14:46.000Z</time></trkpt>
        <trkpt lat="29.54611" lon="103.338362"><ele>2434.8184</ele><time>2025-10-12T03:15:18.000Z</time></trkpt>
        <trkpt lat="29.546119" lon="103.338252"><ele>2439.287</ele><time>2025-10-12T03:15:37.000Z</time></trkpt>
        <trkpt lat="29.546168" lon="103.338149"><ele>2445.3828</ele><time>2025-10-12T03:16:37.000Z</time></trkpt>
        <trkpt lat="29.546145" lon="103.338046"><ele>2445.265</ele><time>2025-10-12T03:17:02.000Z</time></trkpt>
        <trkpt lat="29.546204" lon="103.337959"><ele>2445.097</ele><time>2025-10-12T03:17:17.000Z</time></trkpt>
        <trkpt lat="29.546269" lon="103.337881"><ele>2444.7454</ele><time>2025-10-12T03:17:29.000Z</time></trkpt>
        <trkpt lat="29.546319" lon="103.337793"><ele>2445.3967</ele><time>2025-10-12T03:17:41.000Z</time></trkpt>
        <trkpt lat="29.546341" lon="103.337684"><ele>2447.1692</ele><time>2025-10-12T03:17:54.000Z</time></trkpt>
        <trkpt lat="29.546372" lon="103.337584"><ele>2448.1428</ele><time>2025-10-12T03:18:05.000Z</time></trkpt>
        <trkpt lat="29.546434" lon="103.337503"><ele>2448.6545</ele><time>2025-10-12T03:18:16.000Z</time></trkpt>
        <trkpt lat="29.546494" lon="103.337417"><ele>2451.1433</ele><time>2025-10-12T03:18:25.000Z</time></trkpt>
        <trkpt lat="29.546514" lon="103.337309"><ele>2448.2993</ele><time>2025-10-12T03:18:48.000Z</time></trkpt>
        <trkpt lat="29.546526" lon="103.337207"><ele>2450.939</ele><time>2025-10-12T03:19:01.000Z</time></trkpt>
        <trkpt lat="29.546577" lon="103.337113"><ele>2453.325</ele><time>2025-10-12T03:19:20.000Z</time></trkpt>
        <trkpt lat="29.546497" lon="103.337063"><ele>2452.7356</ele><time>2025-10-12T03:21:45.000Z</time></trkpt>
        <trkpt lat="29.546443" lon="103.336974"><ele>2451.8425</ele><time>2025-10-12T03:22:17.000Z</time></trkpt>
        <trkpt lat="29.546408" lon="103.336867"><ele>2452.8257</ele><time>2025-10-12T03:22:29.000Z</time></trkpt>
        <trkpt lat="29.546399" lon="103.336761"><ele>2451.8845</ele><time>2025-10-12T03:22:47.000Z</time></trkpt>
        <trkpt lat="29.546398" lon="103.336658"><ele>2448.403</ele><time>2025-10-12T03:23:12.000Z</time></trkpt>
        <trkpt lat="29.546416" lon="103.336554"><ele>2446.3865</ele><time>2025-10-12T03:23:27.000Z</time></trkpt>
        <trkpt lat="29.546446" lon="103.336452"><ele>2441.5361</ele><time>2025-10-12T03:23:49.000Z</time></trkpt>
        <trkpt lat="29.546461" lon="103.336348"><ele>2440.812</ele><time>2025-10-12T03:24:01.000Z</time></trkpt>
        <trkpt lat="29.54645" lon="103.336238"><ele>2439.7444</ele><time>2025-10-12T03:24:14.000Z</time></trkpt>
        <trkpt lat="29.546493" lon="103.336142"><ele>2434.6636</ele><time>2025-10-12T03:24:28.000Z</time></trkpt>
        <trkpt lat="29.546531" lon="103.336039"><ele>2433.813</ele><time>2025-10-12T03:24:42.000Z</time></trkpt>
        <trkpt lat="29.546573" lon="103.33594"><ele>2431.327</ele><time>2025-10-12T03:24:58.000Z</time></trkpt>
        <trkpt lat="29.54659" lon="103.335827"><ele>2430.916</ele><time>2025-10-12T03:25:11.000Z</time></trkpt>
        <trkpt lat="29.546612" lon="103.335726"><ele>2431.7212</ele><time>2025-10-12T03:25:20.000Z</time></trkpt>
        <trkpt lat="29.546638" lon="103.335626"><ele>2431.725</ele><time>2025-10-12T03:25:33.000Z</time></trkpt>
        <trkpt lat="29.546666" lon="103.335518"><ele>2431.1284</ele><time>2025-10-12T03:25:46.000Z</time></trkpt>
        <trkpt lat="29.546689" lon="103.335417"><ele>2430.2473</ele><time>2025-10-12T03:25:55.000Z</time></trkpt>
        <trkpt lat="29.546716" lon="103.335316"><ele>2425.7224</ele><time>2025-10-12T03:26:11.000Z</time></trkpt>
        <trkpt lat="29.546745" lon="103.33521"><ele>2425.7744</ele><time>2025-10-12T03:26:23.000Z</time></trkpt>
        <trkpt lat="29.546723" lon="103.335107"><ele>2423.991</ele><time>2025-10-12T03:26:37.000Z</time></trkpt>
        <trkpt lat="29.546663" lon="103.335026"><ele>2422.6846</ele><time>2025-10-12T03:26:56.000Z</time></trkpt>
        <trkpt lat="29.546578" lon="103.334979"><ele>2418.7546</ele><time>2025-10-12T03:27:12.000Z</time></trkpt>
        <trkpt lat="29.546503" lon="103.334912"><ele>2418.3376</ele><time>2025-10-12T03:27:25.000Z</time></trkpt>
        <trkpt lat="29.546422" lon="103.334862"><ele>2420.042</ele><time>2025-10-12T03:27:41.000Z</time></trkpt>
        <trkpt lat="29.546327" lon="103.334845"><ele>2420.7422</ele><time>2025-10-12T03:28:00.000Z</time></trkpt>
        <trkpt lat="29.546248" lon="103.334789"><ele>2421.1033</ele><time>2025-10-12T03:28:45.000Z</time></trkpt>
        <trkpt lat="29.546161" lon="103.334816"><ele>2427.1333</ele><time>2025-10-12T03:29:17.000Z</time></trkpt>
        <trkpt lat="29.546071" lon="103.334796"><ele>2431.0742</ele><time>2025-10-12T03:30:41.000Z</time></trkpt>
        <trkpt lat="29.545977" lon="103.334782"><ele>2428.1462</ele><time>2025-10-12T03:30:58.000Z</time></trkpt>
        <trkpt lat="29.545887" lon="103.334755"><ele>2424.95</ele><time>2025-10-12T03:31:22.000Z</time></trkpt>
        <trkpt lat="29.545829" lon="103.334666"><ele>2420.747</ele><time>2025-10-12T03:31:41.000Z</time></trkpt>
        <trkpt lat="29.545777" lon="103.334581"><ele>2419.867</ele><time>2025-10-12T03:31:59.000Z</time></trkpt>
        <trkpt lat="29.545689" lon="103.334546"><ele>2418.0823</ele><time>2025-10-12T03:32:16.000Z</time></trkpt>
        <trkpt lat="29.545603" lon="103.334499"><ele>2419.1333</ele><time>2025-10-12T03:32:27.000Z</time></trkpt>
        <trkpt lat="29.545517" lon="103.33445"><ele>2415.728</ele><time>2025-10-12T03:32:40.000Z</time></trkpt>
        <trkpt lat="29.545434" lon="103.334396"><ele>2414.2375</ele><time>2025-10-12T03:33:02.000Z</time></trkpt>
        <trkpt lat="29.545351" lon="103.334346"><ele>2419.8315</ele><time>2025-10-12T03:33:31.000Z</time></trkpt>
        <trkpt lat="29.545272" lon="103.334293"><ele>2420.6943</ele><time>2025-10-12T03:33:47.000Z</time></trkpt>
        <trkpt lat="29.545212" lon="103.334208"><ele>2421.5</ele><time>2025-10-12T03:34:06.000Z</time></trkpt>
        <trkpt lat="29.545142" lon="103.334134"><ele>2422.5066</ele><time>2025-10-12T03:34:21.000Z</time></trkpt>
        <trkpt lat="29.545049" lon="103.334094"><ele>2425.9426</ele><time>2025-10-12T03:34:37.000Z</time></trkpt>
        <trkpt lat="29.544948" lon="103.334113"><ele>2426.1125</ele><time>2025-10-12T03:34:51.000Z</time></trkpt>
        <trkpt lat="29.544855" lon="103.334107"><ele>2424.5706</ele><time>2025-10-12T03:35:03.000Z</time></trkpt>
        <trkpt lat="29.544766" lon="103.334139"><ele>2422.4539</ele><time>2025-10-12T03:35:16.000Z</time></trkpt>
        <trkpt lat="29.5447" lon="103.33422"><ele>2419.9866</ele><time>2025-10-12T03:35:26.000Z</time></trkpt>
        <trkpt lat="29.544609" lon="103.334265"><ele>2422.336</ele><time>2025-10-12T03:35:39.000Z</time></trkpt>
        <trkpt lat="29.544517" lon="103.334254"><ele>2420.0627</ele><time>2025-10-12T03:35:50.000Z</time></trkpt>
        <trkpt lat="29.54443" lon="103.334212"><ele>2421.113</ele><time>2025-10-12T03:36:01.000Z</time></trkpt>
        <trkpt lat="29.544334" lon="103.334206"><ele>2419.2388</ele><time>2025-10-12T03:36:11.000Z</time></trkpt>
        <trkpt lat="29.544237" lon="103.334194"><ele>2415.4773</ele><time>2025-10-12T03:36:23.000Z</time></trkpt>
        <trkpt lat="29.544145" lon="103.334187"><ele>2419.0645</ele><time>2025-10-12T03:36:36.000Z</time></trkpt>
        <trkpt lat="29.544055" lon="103.334167"><ele>2422.6902</ele><time>2025-10-12T03:36:47.000Z</time></trkpt>
        <trkpt lat="29.543987" lon="103.3341"><ele>2423.3416</ele><time>2025-10-12T03:36:58.000Z</time></trkpt>
        <trkpt lat="29.543914" lon="103.334038"><ele>2422.5625</ele><time>2025-10-12T03:37:10.000Z</time></trkpt>
        <trkpt lat="29.543851" lon="103.333958"><ele>2423.7195</ele><time>2025-10-12T03:37:26.000Z</time></trkpt>
        <trkpt lat="29.543756" lon="103.333955"><ele>2423.2603</ele><time>2025-10-12T03:37:41.000Z</time></trkpt>
        <trkpt lat="29.543667" lon="103.333972"><ele>2424.2515</ele><time>2025-10-12T03:37:52.000Z</time></trkpt>
        <trkpt lat="29.543588" lon="103.333906"><ele>2424.0806</ele><time>2025-10-12T03:38:02.000Z</time></trkpt>
        <trkpt lat="29.543524" lon="103.333832"><ele>2421.8467</ele><time>2025-10-12T03:38:13.000Z</time></trkpt>
        <trkpt lat="29.543458" lon="103.333752"><ele>2422.094</ele><time>2025-10-12T03:38:30.000Z</time></trkpt>
        <trkpt lat="29.543383" lon="103.333679"><ele>2422.6853</ele><time>2025-10-12T03:38:48.000Z</time></trkpt>
        <trkpt lat="29.543358" lon="103.333576"><ele>2417.0151</ele><time>2025-10-12T03:39:01.000Z</time></trkpt>
        <trkpt lat="29.543326" lon="103.333476"><ele>2416.4907</ele><time>2025-10-12T03:39:12.000Z</time></trkpt>
        <trkpt lat="29.543291" lon="103.33338"><ele>2415.9807</ele><time>2025-10-12T03:39:24.000Z</time></trkpt>
        <trkpt lat="29.543263" lon="103.333276"><ele>2413.1365</ele><time>2025-10-12T03:39:38.000Z</time></trkpt>
        <trkpt lat="29.543212" lon="103.33318"><ele>2416.7683</ele><time>2025-10-12T03:39:50.000Z</time></trkpt>
        <trkpt lat="29.54315" lon="103.333101"><ele>2415.2798</ele><time>2025-10-12T03:40:11.000Z</time></trkpt>
        <trkpt lat="29.543084" lon="103.333015"><ele>2415.9592</ele><time>2025-10-12T03:40:27.000Z</time></trkpt>
        <trkpt lat="29.542984" lon="103.333013"><ele>2419.4436</ele><time>2025-10-12T03:40:38.000Z</time></trkpt>
        <trkpt lat="29.542894" lon="103.332987"><ele>2419.7444</ele><time>2025-10-12T03:40:52.000Z</time></trkpt>
        <trkpt lat="29.542822" lon="103.33292"><ele>2416.7588</ele><time>2025-10-12T03:41:06.000Z</time></trkpt>
        <trkpt lat="29.542773" lon="103.332828"><ele>2417.88</ele><time>2025-10-12T03:41:17.000Z</time></trkpt>
        <trkpt lat="29.54271" lon="103.332751"><ele>2418.3833</ele><time>2025-10-12T03:41:30.000Z</time></trkpt>
        <trkpt lat="29.542634" lon="103.332684"><ele>2418.1494</ele><time>2025-10-12T03:41:48.000Z</time></trkpt>
        <trkpt lat="29.542541" lon="103.33265"><ele>2417.9546</ele><time>2025-10-12T03:41:59.000Z</time></trkpt>
        <trkpt lat="29.542492" lon="103.33256"><ele>2417.659</ele><time>2025-10-12T03:42:11.000Z</time></trkpt>
        <trkpt lat="29.542479" lon="103.332452"><ele>2417.9785</ele><time>2025-10-12T03:42:25.000Z</time></trkpt>
        <trkpt lat="29.542431" lon="103.332361"><ele>2416.481</ele><time>2025-10-12T03:42:38.000Z</time></trkpt>
        <trkpt lat="29.542381" lon="103.332264"><ele>2417.4521</ele><time>2025-10-12T03:42:50.000Z</time></trkpt>
        <trkpt lat="29.542339" lon="103.332172"><ele>2419.7654</ele><time>2025-10-12T03:43:00.000Z</time></trkpt>
        <trkpt lat="29.542262" lon="103.332111"><ele>2418.9568</ele><time>2025-10-12T03:43:11.000Z</time></trkpt>
        <trkpt lat="29.5422" lon="103.33203"><ele>2417.3762</ele><time>2025-10-12T03:43:24.000Z</time></trkpt>
        <trkpt lat="29.542106" lon="103.332015"><ele>2416.8013</ele><time>2025-10-12T03:43:38.000Z</time></trkpt>
        <trkpt lat="29.542013" lon="103.332011"><ele>2413.745</ele><time>2025-10-12T03:43:55.000Z</time></trkpt>
        <trkpt lat="29.541917" lon="103.332025"><ele>2413.5</ele><time>2025-10-12T03:44:06.000Z</time></trkpt>
        <trkpt lat="29.541825" lon="103.332037"><ele>2412.2188</ele><time>2025-10-12T03:44:17.000Z</time></trkpt>
        <trkpt lat="29.541735" lon="103.332017"><ele>2413.6785</ele><time>2025-10-12T03:44:27.000Z</time></trkpt>
        <trkpt lat="29.541688" lon="103.331928"><ele>2412.2896</ele><time>2025-10-12T03:44:38.000Z</time></trkpt>
        <trkpt lat="29.541744" lon="103.331842"><ele>2410.5476</ele><time>2025-10-12T03:44:48.000Z</time></trkpt>
        <trkpt lat="29.541771" lon="103.331738"><ele>2411.5583</ele><time>2025-10-12T03:45:02.000Z</time></trkpt>
        <trkpt lat="29.541686" lon="103.331702"><ele>2414.911</ele><time>2025-10-12T03:47:40.000Z</time></trkpt>
        <trkpt lat="29.541594" lon="103.33173"><ele>2416.9363</ele><time>2025-10-12T03:50:32.000Z</time></trkpt>
        <trkpt lat="29.541503" lon="103.331741"><ele>2416.3284</ele><time>2025-10-12T03:50:46.000Z</time></trkpt>
        <trkpt lat="29.541406" lon="103.331743"><ele>2417.5103</ele><time>2025-10-12T03:51:01.000Z</time></trkpt>
        <trkpt lat="29.54131" lon="103.331719"><ele>2419.0742</ele><time>2025-10-12T03:51:14.000Z</time></trkpt>
        <trkpt lat="29.541226" lon="103.331666"><ele>2418.7214</ele><time>2025-10-12T03:51:24.000Z</time></trkpt>
        <trkpt lat="29.541162" lon="103.331593"><ele>2418.4011</ele><time>2025-10-12T03:51:37.000Z</time></trkpt>
        <trkpt lat="29.541175" lon="103.331696"><ele>2417.65</ele><time>2025-10-12T03:52:32.000Z</time></trkpt>
        <trkpt lat="29.541081" lon="103.331669"><ele>2418.9014</ele><time>2025-10-12T03:52:45.000Z</time></trkpt>
        <trkpt lat="29.541002" lon="103.331614"><ele>2419.7754</ele><time>2025-10-12T03:52:57.000Z</time></trkpt>
        <trkpt lat="29.540919" lon="103.331566"><ele>2420.4797</ele><time>2025-10-12T03:53:08.000Z</time></trkpt>
        <trkpt lat="29.540837" lon="103.331506"><ele>2421.941</ele><time>2025-10-12T03:53:21.000Z</time></trkpt>
        <trkpt lat="29.540758" lon="103.331454"><ele>2419.99</ele><time>2025-10-12T03:53:37.000Z</time></trkpt>
        <trkpt lat="29.540681" lon="103.331399"><ele>2420.835</ele><time>2025-10-12T03:53:50.000Z</time></trkpt>
        <trkpt lat="29.540593" lon="103.331365"><ele>2419.5383</ele><time>2025-10-12T03:54:03.000Z</time></trkpt>
        <trkpt lat="29.540501" lon="103.331331"><ele>2421.0684</ele><time>2025-10-12T03:54:18.000Z</time></trkpt>
        <trkpt lat="29.540411" lon="103.331291"><ele>2420.348</ele><time>2025-10-12T03:54:31.000Z</time></trkpt>
        <trkpt lat="29.540319" lon="103.331278"><ele>2418.5386</ele><time>2025-10-12T03:54:55.000Z</time></trkpt>
        <trkpt lat="29.540243" lon="103.331214"><ele>2420.6636</ele><time>2025-10-12T03:55:22.000Z</time></trkpt>
        <trkpt lat="29.540175" lon="103.33114"><ele>2421.5837</ele><time>2025-10-12T03:55:35.000Z</time></trkpt>
        <trkpt lat="29.540117" lon="103.331055"><ele>2423.6987</ele><time>2025-10-12T03:56:23.000Z</time></trkpt>
        <trkpt lat="29.540078" lon="103.330942"><ele>2424.4487</ele><time>2025-10-12T03:56:33.000Z</time></trkpt>
        <trkpt lat="29.540165" lon="103.330878"><ele>2424.6462</ele><time>2025-10-12T03:56:40.000Z</time></trkpt>
        <trkpt lat="29.540052" lon="103.330825"><ele>2426.426</ele><time>2025-10-12T03:58:55.000Z</time></trkpt>
        <trkpt lat="29.539967" lon="103.330921"><ele>2432.662</ele><time>2025-10-12T03:59:03.000Z</time></trkpt>
      </trkseg>
  </trk>
</gpx>